<?xml version="1.0" encoding="UTF-8"?>
<gpx version="1.1" creator="https://www.youtrack.es" xsi:schemaLocation="http://www.topografix.com/GPX/1/1 http://www.topografix.com/GPX/1/1/gpx.xsd http://www.garmin.com/xmlschemas/GpxExtensions/v3 http://www.garmin.com/xmlschemas/GpxExtensionsv3.xsd http://www.garmin.com/xmlschemas/TrackPointExtension/v1 http://www.garmin.com/xmlschemas/TrackPointExtensionv1.xsd" xmlns:gpxtpx="http://www.garmin.com/xmlschemas/TrackPointExtension/v1" xmlns:gpxx="http://www.garmin.com/xmlschemas/GpxExtensions/v3" xmlns:xsi="http://www.w3.org/2001/XMLSchema-instance">
  <metadata>
    <author>
      <name>angel sussno</name>
      <email id="sussno14" domain="gmail.com"/>
    </author>
    <link href="https://www.youtrack.es">
      <text>YouTrack.es</text>
    </link>
    <time>2026-05-08T06:38:43Z</time>
  </metadata>
  <trk>
    <src>https://www.youtrack.es</src>
    <link href="https://www.youtrack.es/ruta/37106-100">
      <text>YouTrack.es</text>
    </link>
    <trkseg>
      <trkpt lat="41.417731" lon="2.024580">
        <ele>68.20</ele>
        <time>2022-10-10T07:09:22.38Z</time>
      </trkpt>
      <trkpt lat="41.418128" lon="2.024977">
        <ele>68.52</ele>
        <time>2022-10-10T07:09:22.89Z</time>
      </trkpt>
      <trkpt lat="41.418330" lon="2.025451">
        <ele>68.80</ele>
        <time>2022-10-10T07:09:23.33Z</time>
      </trkpt>
      <trkpt lat="41.418320" lon="2.026150">
        <ele>67.20</ele>
        <time>2022-10-10T07:09:24.73Z</time>
      </trkpt>
      <trkpt lat="41.418290" lon="2.026260">
        <ele>67.40</ele>
        <time>2022-10-10T07:09:25.31Z</time>
      </trkpt>
      <trkpt lat="41.418220" lon="2.026420">
        <ele>68.80</ele>
        <time>2022-10-10T07:09:26.24Z</time>
      </trkpt>
      <trkpt lat="41.418060" lon="2.026690">
        <ele>73.60</ele>
        <time>2022-10-10T07:09:27.96Z</time>
      </trkpt>
      <trkpt lat="41.417920" lon="2.027000">
        <ele>76.30</ele>
        <time>2022-10-10T07:09:29.77Z</time>
      </trkpt>
      <trkpt lat="41.417620" lon="2.027860">
        <ele>78.20</ele>
        <time>2022-10-10T07:09:34.51Z</time>
      </trkpt>
      <trkpt lat="41.417600" lon="2.027950">
        <ele>78.40</ele>
        <time>2022-10-10T07:09:34.98Z</time>
      </trkpt>
      <trkpt lat="41.417600" lon="2.028080">
        <ele>77.80</ele>
        <time>2022-10-10T07:09:35.63Z</time>
      </trkpt>
      <trkpt lat="41.417640" lon="2.028410">
        <ele>73.20</ele>
        <time>2022-10-10T07:09:37.30Z</time>
      </trkpt>
      <trkpt lat="41.417630" lon="2.029030">
        <ele>75.00</ele>
        <time>2022-10-10T07:09:40.40Z</time>
      </trkpt>
      <trkpt lat="41.417660" lon="2.029230">
        <ele>73.90</ele>
        <time>2022-10-10T07:09:41.42Z</time>
      </trkpt>
      <trkpt lat="41.417790" lon="2.029910">
        <ele>73.00</ele>
        <time>2022-10-10T07:09:44.93Z</time>
      </trkpt>
      <trkpt lat="41.418020" lon="2.030540">
        <ele>77.40</ele>
        <time>2022-10-10T07:09:48.43Z</time>
      </trkpt>
      <trkpt lat="41.418220" lon="2.030980">
        <ele>81.20</ele>
        <time>2022-10-10T07:09:51.01Z</time>
      </trkpt>
      <trkpt lat="41.418220" lon="2.031000">
        <ele>81.40</ele>
        <time>2022-10-10T07:09:51.11Z</time>
      </trkpt>
      <trkpt lat="41.418220" lon="2.031000">
        <ele>81.40</ele>
        <time>2022-10-10T07:09:51.17Z</time>
      </trkpt>
      <trkpt lat="41.418220" lon="2.031000">
        <ele>81.40</ele>
        <time>2022-10-10T07:09:51.23Z</time>
      </trkpt>
      <trkpt lat="41.418230" lon="2.031050">
        <ele>81.80</ele>
        <time>2022-10-10T07:09:51.48Z</time>
      </trkpt>
      <trkpt lat="41.418240" lon="2.031120">
        <ele>82.40</ele>
        <time>2022-10-10T07:09:51.84Z</time>
      </trkpt>
      <trkpt lat="41.418210" lon="2.031150">
        <ele>82.20</ele>
        <time>2022-10-10T07:09:52.09Z</time>
      </trkpt>
      <trkpt lat="41.418110" lon="2.031420">
        <ele>82.50</ele>
        <time>2022-10-10T07:09:53.60Z</time>
      </trkpt>
      <trkpt lat="41.418110" lon="2.031420">
        <ele>82.50</ele>
        <time>2022-10-10T07:09:53.66Z</time>
      </trkpt>
      <trkpt lat="41.418084" lon="2.031650">
        <ele>118.50</ele>
        <time>2022-10-10T07:09:54.82Z</time>
      </trkpt>
      <trkpt lat="41.418086" lon="2.031948">
        <ele>117.30</ele>
        <time>2022-10-10T07:09:56.31Z</time>
      </trkpt>
      <trkpt lat="41.418019" lon="2.032218">
        <ele>115.10</ele>
        <time>2022-10-10T07:09:57.73Z</time>
      </trkpt>
      <trkpt lat="41.417656" lon="2.032538">
        <ele>110.40</ele>
        <time>2022-10-10T07:10:00.63Z</time>
      </trkpt>
      <trkpt lat="41.417471" lon="2.032806">
        <ele>112.80</ele>
        <time>2022-10-10T07:10:02.45Z</time>
      </trkpt>
      <trkpt lat="41.417345" lon="2.033173">
        <ele>119.00</ele>
        <time>2022-10-10T07:10:04.47Z</time>
      </trkpt>
      <trkpt lat="41.417224" lon="2.033644">
        <ele>126.10</ele>
        <time>2022-10-10T07:10:06.96Z</time>
      </trkpt>
      <trkpt lat="41.417009" lon="2.034757">
        <ele>138.00</ele>
        <time>2022-10-10T07:10:12.71Z</time>
      </trkpt>
      <trkpt lat="41.416900" lon="2.035162">
        <ele>140.80</ele>
        <time>2022-10-10T07:10:14.86Z</time>
      </trkpt>
      <trkpt lat="41.416827" lon="2.035324">
        <ele>141.20</ele>
        <time>2022-10-10T07:10:15.80Z</time>
      </trkpt>
      <trkpt lat="41.416946" lon="2.035714">
        <ele>145.10</ele>
        <time>2022-10-10T07:10:17.91Z</time>
      </trkpt>
      <trkpt lat="41.417129" lon="2.036186">
        <ele>150.80</ele>
        <time>2022-10-10T07:10:20.56Z</time>
      </trkpt>
      <trkpt lat="41.417102" lon="2.036365">
        <ele>151.40</ele>
        <time>2022-10-10T07:10:21.48Z</time>
      </trkpt>
      <trkpt lat="41.416877" lon="2.036761">
        <ele>150.90</ele>
        <time>2022-10-10T07:10:23.96Z</time>
      </trkpt>
      <trkpt lat="41.416901" lon="2.037035">
        <ele>153.60</ele>
        <time>2022-10-10T07:10:25.34Z</time>
      </trkpt>
      <trkpt lat="41.416747" lon="2.037424">
        <ele>156.40</ele>
        <time>2022-10-10T07:10:27.54Z</time>
      </trkpt>
      <trkpt lat="41.416315" lon="2.038154">
        <ele>165.10</ele>
        <time>2022-10-10T07:10:32.19Z</time>
      </trkpt>
      <trkpt lat="41.416184" lon="2.038728">
        <ele>172.40</ele>
        <time>2022-10-10T07:10:35.19Z</time>
      </trkpt>
      <trkpt lat="41.415954" lon="2.038928">
        <ele>170.80</ele>
        <time>2022-10-10T07:10:37.02Z</time>
      </trkpt>
      <trkpt lat="41.415767" lon="2.039362">
        <ele>177.80</ele>
        <time>2022-10-10T07:10:39.52Z</time>
      </trkpt>
      <trkpt lat="41.415685" lon="2.039588">
        <ele>182.70</ele>
        <time>2022-10-10T07:10:40.78Z</time>
      </trkpt>
      <trkpt lat="41.415479" lon="2.039714">
        <ele>183.60</ele>
        <time>2022-10-10T07:10:42.29Z</time>
      </trkpt>
      <trkpt lat="41.415148" lon="2.039943">
        <ele>184.00</ele>
        <time>2022-10-10T07:10:44.77Z</time>
      </trkpt>
      <trkpt lat="41.414990" lon="2.040237">
        <ele>189.00</ele>
        <time>2022-10-10T07:10:46.58Z</time>
      </trkpt>
      <trkpt lat="41.414958" lon="2.040529">
        <ele>196.20</ele>
        <time>2022-10-10T07:10:48.06Z</time>
      </trkpt>
      <trkpt lat="41.414985" lon="2.040720">
        <ele>201.00</ele>
        <time>2022-10-10T07:10:49.03Z</time>
      </trkpt>
      <trkpt lat="41.415074" lon="2.040718">
        <ele>201.00</ele>
        <time>2022-10-10T07:10:49.62Z</time>
      </trkpt>
      <trkpt lat="41.415316" lon="2.040389">
        <ele>194.90</ele>
        <time>2022-10-10T07:10:51.92Z</time>
      </trkpt>
      <trkpt lat="41.415585" lon="2.040290">
        <ele>195.30</ele>
        <time>2022-10-10T07:10:53.79Z</time>
      </trkpt>
      <trkpt lat="41.415721" lon="2.040361">
        <ele>197.10</ele>
        <time>2022-10-10T07:10:54.76Z</time>
      </trkpt>
      <trkpt lat="41.415870" lon="2.040516">
        <ele>198.50</ele>
        <time>2022-10-10T07:10:56.02Z</time>
      </trkpt>
      <trkpt lat="41.415921" lon="2.040588">
        <ele>198.20</ele>
        <time>2022-10-10T07:10:56.51Z</time>
      </trkpt>
      <trkpt lat="41.415981" lon="2.040615">
        <ele>197.10</ele>
        <time>2022-10-10T07:10:56.94Z</time>
      </trkpt>
      <trkpt lat="41.416073" lon="2.040519">
        <ele>194.70</ele>
        <time>2022-10-10T07:10:57.71Z</time>
      </trkpt>
      <trkpt lat="41.416226" lon="2.040230">
        <ele>190.70</ele>
        <time>2022-10-10T07:10:59.48Z</time>
      </trkpt>
      <trkpt lat="41.416453" lon="2.040025">
        <ele>186.80</ele>
        <time>2022-10-10T07:11:01.31Z</time>
      </trkpt>
      <trkpt lat="41.416600" lon="2.040070">
        <ele>189.50</ele>
        <time>2022-10-10T07:11:02.32Z</time>
      </trkpt>
      <trkpt lat="41.416510" lon="2.040290">
        <ele>191.80</ele>
        <time>2022-10-10T07:11:03.57Z</time>
      </trkpt>
      <trkpt lat="41.416420" lon="2.040690">
        <ele>195.00</ele>
        <time>2022-10-10T07:11:05.66Z</time>
      </trkpt>
      <trkpt lat="41.416350" lon="2.040900">
        <ele>195.70</ele>
        <time>2022-10-10T07:11:06.81Z</time>
      </trkpt>
      <trkpt lat="41.416310" lon="2.040980">
        <ele>195.60</ele>
        <time>2022-10-10T07:11:07.29Z</time>
      </trkpt>
      <trkpt lat="41.416210" lon="2.041080">
        <ele>196.20</ele>
        <time>2022-10-10T07:11:08.12Z</time>
      </trkpt>
      <trkpt lat="41.416140" lon="2.041250">
        <ele>197.60</ele>
        <time>2022-10-10T07:11:09.09Z</time>
      </trkpt>
      <trkpt lat="41.416010" lon="2.041350">
        <ele>198.90</ele>
        <time>2022-10-10T07:11:10.09Z</time>
      </trkpt>
      <trkpt lat="41.416040" lon="2.041440">
        <ele>199.90</ele>
        <time>2022-10-10T07:11:10.58Z</time>
      </trkpt>
      <trkpt lat="41.416070" lon="2.041580">
        <ele>201.40</ele>
        <time>2022-10-10T07:11:11.31Z</time>
      </trkpt>
      <trkpt lat="41.416060" lon="2.041880">
        <ele>205.90</ele>
        <time>2022-10-10T07:11:12.81Z</time>
      </trkpt>
      <trkpt lat="41.416030" lon="2.042110">
        <ele>208.60</ele>
        <time>2022-10-10T07:11:13.98Z</time>
      </trkpt>
      <trkpt lat="41.416000" lon="2.042330">
        <ele>210.90</ele>
        <time>2022-10-10T07:11:15.10Z</time>
      </trkpt>
      <trkpt lat="41.415980" lon="2.042470">
        <ele>212.50</ele>
        <time>2022-10-10T07:11:15.81Z</time>
      </trkpt>
      <trkpt lat="41.415900" lon="2.042630">
        <ele>216.00</ele>
        <time>2022-10-10T07:11:16.77Z</time>
      </trkpt>
      <trkpt lat="41.415880" lon="2.042700">
        <ele>216.90</ele>
        <time>2022-10-10T07:11:17.15Z</time>
      </trkpt>
      <trkpt lat="41.415870" lon="2.042770">
        <ele>217.50</ele>
        <time>2022-10-10T07:11:17.50Z</time>
      </trkpt>
      <trkpt lat="41.415890" lon="2.042840">
        <ele>216.90</ele>
        <time>2022-10-10T07:11:17.88Z</time>
      </trkpt>
      <trkpt lat="41.415920" lon="2.042900">
        <ele>215.80</ele>
        <time>2022-10-10T07:11:18.24Z</time>
      </trkpt>
      <trkpt lat="41.415960" lon="2.042940">
        <ele>214.50</ele>
        <time>2022-10-10T07:11:18.57Z</time>
      </trkpt>
      <trkpt lat="41.416030" lon="2.042960">
        <ele>212.10</ele>
        <time>2022-10-10T07:11:19.05Z</time>
      </trkpt>
      <trkpt lat="41.416110" lon="2.042970">
        <ele>209.40</ele>
        <time>2022-10-10T07:11:19.58Z</time>
      </trkpt>
      <trkpt lat="41.416190" lon="2.043010">
        <ele>207.80</ele>
        <time>2022-10-10T07:11:20.15Z</time>
      </trkpt>
      <trkpt lat="41.416220" lon="2.043050">
        <ele>207.20</ele>
        <time>2022-10-10T07:11:20.44Z</time>
      </trkpt>
      <trkpt lat="41.416240" lon="2.043110">
        <ele>207.10</ele>
        <time>2022-10-10T07:11:20.76Z</time>
      </trkpt>
      <trkpt lat="41.416240" lon="2.043240">
        <ele>208.10</ele>
        <time>2022-10-10T07:11:21.41Z</time>
      </trkpt>
      <trkpt lat="41.416180" lon="2.043630">
        <ele>213.60</ele>
        <time>2022-10-10T07:11:23.40Z</time>
      </trkpt>
      <trkpt lat="41.416190" lon="2.043780">
        <ele>215.80</ele>
        <time>2022-10-10T07:11:24.16Z</time>
      </trkpt>
      <trkpt lat="41.416220" lon="2.043870">
        <ele>216.70</ele>
        <time>2022-10-10T07:11:24.65Z</time>
      </trkpt>
      <trkpt lat="41.416270" lon="2.043900">
        <ele>216.30</ele>
        <time>2022-10-10T07:11:25.02Z</time>
      </trkpt>
      <trkpt lat="41.416340" lon="2.043910">
        <ele>215.20</ele>
        <time>2022-10-10T07:11:25.48Z</time>
      </trkpt>
      <trkpt lat="41.416390" lon="2.043880">
        <ele>213.80</ele>
        <time>2022-10-10T07:11:25.85Z</time>
      </trkpt>
      <trkpt lat="41.416440" lon="2.043830">
        <ele>213.40</ele>
        <time>2022-10-10T07:11:26.27Z</time>
      </trkpt>
      <trkpt lat="41.416470" lon="2.043780">
        <ele>212.60</ele>
        <time>2022-10-10T07:11:26.59Z</time>
      </trkpt>
      <trkpt lat="41.416510" lon="2.043730">
        <ele>211.80</ele>
        <time>2022-10-10T07:11:26.95Z</time>
      </trkpt>
      <trkpt lat="41.416550" lon="2.043650">
        <ele>210.20</ele>
        <time>2022-10-10T07:11:27.43Z</time>
      </trkpt>
      <trkpt lat="41.416600" lon="2.043600">
        <ele>209.30</ele>
        <time>2022-10-10T07:11:27.85Z</time>
      </trkpt>
      <trkpt lat="41.416640" lon="2.043570">
        <ele>209.00</ele>
        <time>2022-10-10T07:11:28.16Z</time>
      </trkpt>
      <trkpt lat="41.416710" lon="2.043550">
        <ele>209.10</ele>
        <time>2022-10-10T07:11:28.63Z</time>
      </trkpt>
      <trkpt lat="41.416860" lon="2.043520">
        <ele>209.90</ele>
        <time>2022-10-10T07:11:29.64Z</time>
      </trkpt>
      <trkpt lat="41.417020" lon="2.043510">
        <ele>208.90</ele>
        <time>2022-10-10T07:11:30.71Z</time>
      </trkpt>
      <trkpt lat="41.417250" lon="2.043520">
        <ele>203.90</ele>
        <time>2022-10-10T07:11:32.25Z</time>
      </trkpt>
      <trkpt lat="41.417140" lon="2.043590">
        <ele>207.70</ele>
        <time>2022-10-10T07:11:33.06Z</time>
      </trkpt>
      <trkpt lat="41.417070" lon="2.043620">
        <ele>209.90</ele>
        <time>2022-10-10T07:11:33.55Z</time>
      </trkpt>
      <trkpt lat="41.417000" lon="2.043650">
        <ele>212.10</ele>
        <time>2022-10-10T07:11:34.04Z</time>
      </trkpt>
      <trkpt lat="41.416910" lon="2.043670">
        <ele>213.60</ele>
        <time>2022-10-10T07:11:34.65Z</time>
      </trkpt>
      <trkpt lat="41.416820" lon="2.043700">
        <ele>213.50</ele>
        <time>2022-10-10T07:11:35.27Z</time>
      </trkpt>
      <trkpt lat="41.416720" lon="2.043760">
        <ele>214.40</ele>
        <time>2022-10-10T07:11:36Z</time>
      </trkpt>
      <trkpt lat="41.416660" lon="2.043810">
        <ele>215.60</ele>
        <time>2022-10-10T07:11:36.47Z</time>
      </trkpt>
      <trkpt lat="41.416610" lon="2.043900">
        <ele>217.40</ele>
        <time>2022-10-10T07:11:37.03Z</time>
      </trkpt>
      <trkpt lat="41.416580" lon="2.043990">
        <ele>218.70</ele>
        <time>2022-10-10T07:11:37.52Z</time>
      </trkpt>
      <trkpt lat="41.416530" lon="2.044020">
        <ele>218.40</ele>
        <time>2022-10-10T07:11:37.89Z</time>
      </trkpt>
      <trkpt lat="41.416470" lon="2.044110">
        <ele>218.80</ele>
        <time>2022-10-10T07:11:38.49Z</time>
      </trkpt>
      <trkpt lat="41.416430" lon="2.044170">
        <ele>219.00</ele>
        <time>2022-10-10T07:11:38.89Z</time>
      </trkpt>
      <trkpt lat="41.416390" lon="2.044220">
        <ele>219.90</ele>
        <time>2022-10-10T07:11:39.26Z</time>
      </trkpt>
      <trkpt lat="41.416340" lon="2.044260">
        <ele>222.00</ele>
        <time>2022-10-10T07:11:39.64Z</time>
      </trkpt>
      <trkpt lat="41.416240" lon="2.044340">
        <ele>225.60</ele>
        <time>2022-10-10T07:11:40.42Z</time>
      </trkpt>
      <trkpt lat="41.416110" lon="2.044440">
        <ele>228.90</ele>
        <time>2022-10-10T07:11:41.42Z</time>
      </trkpt>
      <trkpt lat="41.415990" lon="2.044550">
        <ele>236.60</ele>
        <time>2022-10-10T07:11:42.39Z</time>
      </trkpt>
      <trkpt lat="41.415900" lon="2.044660">
        <ele>241.20</ele>
        <time>2022-10-10T07:11:43.21Z</time>
      </trkpt>
      <trkpt lat="41.415800" lon="2.044780">
        <ele>245.00</ele>
        <time>2022-10-10T07:11:44.10Z</time>
      </trkpt>
      <trkpt lat="41.415770" lon="2.044840">
        <ele>246.70</ele>
        <time>2022-10-10T07:11:44.46Z</time>
      </trkpt>
      <trkpt lat="41.415710" lon="2.044880">
        <ele>248.20</ele>
        <time>2022-10-10T07:11:44.91Z</time>
      </trkpt>
      <trkpt lat="41.415650" lon="2.044910">
        <ele>249.30</ele>
        <time>2022-10-10T07:11:45.34Z</time>
      </trkpt>
      <trkpt lat="41.415570" lon="2.044910">
        <ele>249.90</ele>
        <time>2022-10-10T07:11:45.87Z</time>
      </trkpt>
      <trkpt lat="41.415490" lon="2.044940">
        <ele>252.00</ele>
        <time>2022-10-10T07:11:46.43Z</time>
      </trkpt>
      <trkpt lat="41.415360" lon="2.044890">
        <ele>254.70</ele>
        <time>2022-10-10T07:11:47.33Z</time>
      </trkpt>
      <trkpt lat="41.415280" lon="2.044840">
        <ele>256.20</ele>
        <time>2022-10-10T07:11:47.92Z</time>
      </trkpt>
      <trkpt lat="41.415260" lon="2.044810">
        <ele>256.40</ele>
        <time>2022-10-10T07:11:48.12Z</time>
      </trkpt>
      <trkpt lat="41.415260" lon="2.044810">
        <ele>256.40</ele>
        <time>2022-10-10T07:11:48.18Z</time>
      </trkpt>
      <trkpt lat="41.415260" lon="2.044810">
        <ele>256.40</ele>
        <time>2022-10-10T07:11:48.24Z</time>
      </trkpt>
      <trkpt lat="41.415240" lon="2.044780">
        <ele>256.70</ele>
        <time>2022-10-10T07:11:48.44Z</time>
      </trkpt>
      <trkpt lat="41.415220" lon="2.044690">
        <ele>256.20</ele>
        <time>2022-10-10T07:11:48.91Z</time>
      </trkpt>
      <trkpt lat="41.415230" lon="2.044560">
        <ele>254.00</ele>
        <time>2022-10-10T07:11:49.56Z</time>
      </trkpt>
      <trkpt lat="41.415260" lon="2.044360">
        <ele>250.60</ele>
        <time>2022-10-10T07:11:50.58Z</time>
      </trkpt>
      <trkpt lat="41.415260" lon="2.044300">
        <ele>250.00</ele>
        <time>2022-10-10T07:11:50.88Z</time>
      </trkpt>
      <trkpt lat="41.415230" lon="2.044250">
        <ele>250.50</ele>
        <time>2022-10-10T07:11:51.20Z</time>
      </trkpt>
      <trkpt lat="41.415190" lon="2.044270">
        <ele>252.00</ele>
        <time>2022-10-10T07:11:51.49Z</time>
      </trkpt>
      <trkpt lat="41.415170" lon="2.044330">
        <ele>253.20</ele>
        <time>2022-10-10T07:11:51.81Z</time>
      </trkpt>
      <trkpt lat="41.415125" lon="2.044267">
        <ele>242.70</ele>
        <time>2022-10-10T07:11:52.25Z</time>
      </trkpt>
      <trkpt lat="41.415109" lon="2.044051">
        <ele>240.20</ele>
        <time>2022-10-10T07:11:53.33Z</time>
      </trkpt>
      <trkpt lat="41.415094" lon="2.043845">
        <ele>238.00</ele>
        <time>2022-10-10T07:11:54.37Z</time>
      </trkpt>
      <trkpt lat="41.415027" lon="2.043729">
        <ele>237.70</ele>
        <time>2022-10-10T07:11:55.10Z</time>
      </trkpt>
      <trkpt lat="41.414896" lon="2.043718">
        <ele>240.80</ele>
        <time>2022-10-10T07:11:55.98Z</time>
      </trkpt>
      <trkpt lat="41.414905" lon="2.043930">
        <ele>243.00</ele>
        <time>2022-10-10T07:11:57.04Z</time>
      </trkpt>
      <trkpt lat="41.414913" lon="2.044125">
        <ele>244.80</ele>
        <time>2022-10-10T07:11:58.01Z</time>
      </trkpt>
      <trkpt lat="41.414820" lon="2.044337">
        <ele>250.20</ele>
        <time>2022-10-10T07:11:59.24Z</time>
      </trkpt>
      <trkpt lat="41.414767" lon="2.044534">
        <ele>254.10</ele>
        <time>2022-10-10T07:12:00.29Z</time>
      </trkpt>
      <trkpt lat="41.414737" lon="2.044691">
        <ele>256.90</ele>
        <time>2022-10-10T07:12:01.10Z</time>
      </trkpt>
      <trkpt lat="41.414687" lon="2.044774">
        <ele>259.20</ele>
        <time>2022-10-10T07:12:01.63Z</time>
      </trkpt>
      <trkpt lat="41.414635" lon="2.044879">
        <ele>261.70</ele>
        <time>2022-10-10T07:12:02.26Z</time>
      </trkpt>
      <trkpt lat="41.414660" lon="2.045050">
        <ele>272.40</ele>
        <time>2022-10-10T07:12:03.13Z</time>
      </trkpt>
      <trkpt lat="41.414640" lon="2.045120">
        <ele>273.10</ele>
        <time>2022-10-10T07:12:03.50Z</time>
      </trkpt>
      <trkpt lat="41.414620" lon="2.045170">
        <ele>273.60</ele>
        <time>2022-10-10T07:12:03.79Z</time>
      </trkpt>
      <trkpt lat="41.414600" lon="2.045250">
        <ele>274.20</ele>
        <time>2022-10-10T07:12:04.21Z</time>
      </trkpt>
      <trkpt lat="41.414550" lon="2.045320">
        <ele>274.90</ele>
        <time>2022-10-10T07:12:04.69Z</time>
      </trkpt>
      <trkpt lat="41.414440" lon="2.045430">
        <ele>275.50</ele>
        <time>2022-10-10T07:12:05.61Z</time>
      </trkpt>
      <trkpt lat="41.414360" lon="2.045510">
        <ele>275.60</ele>
        <time>2022-10-10T07:12:06.28Z</time>
      </trkpt>
      <trkpt lat="41.414300" lon="2.045560">
        <ele>276.10</ele>
        <time>2022-10-10T07:12:06.75Z</time>
      </trkpt>
      <trkpt lat="41.414250" lon="2.045600">
        <ele>276.60</ele>
        <time>2022-10-10T07:12:07.14Z</time>
      </trkpt>
      <trkpt lat="41.414180" lon="2.045630">
        <ele>277.20</ele>
        <time>2022-10-10T07:12:07.63Z</time>
      </trkpt>
      <trkpt lat="41.414090" lon="2.045700">
        <ele>276.70</ele>
        <time>2022-10-10T07:12:08.32Z</time>
      </trkpt>
      <trkpt lat="41.413990" lon="2.045730">
        <ele>276.00</ele>
        <time>2022-10-10T07:12:09Z</time>
      </trkpt>
      <trkpt lat="41.413920" lon="2.045740">
        <ele>275.60</ele>
        <time>2022-10-10T07:12:09.47Z</time>
      </trkpt>
      <trkpt lat="41.413800" lon="2.045720">
        <ele>275.50</ele>
        <time>2022-10-10T07:12:10.28Z</time>
      </trkpt>
      <trkpt lat="41.413720" lon="2.045700">
        <ele>275.50</ele>
        <time>2022-10-10T07:12:10.82Z</time>
      </trkpt>
      <trkpt lat="41.413650" lon="2.045630">
        <ele>274.40</ele>
        <time>2022-10-10T07:12:11.41Z</time>
      </trkpt>
      <trkpt lat="41.413540" lon="2.045520">
        <ele>271.80</ele>
        <time>2022-10-10T07:12:12.32Z</time>
      </trkpt>
      <trkpt lat="41.413450" lon="2.045490">
        <ele>270.40</ele>
        <time>2022-10-10T07:12:12.94Z</time>
      </trkpt>
      <trkpt lat="41.413380" lon="2.045510">
        <ele>270.10</ele>
        <time>2022-10-10T07:12:13.42Z</time>
      </trkpt>
      <trkpt lat="41.413300" lon="2.045600">
        <ele>270.90</ele>
        <time>2022-10-10T07:12:14.12Z</time>
      </trkpt>
      <trkpt lat="41.413230" lon="2.045740">
        <ele>271.90</ele>
        <time>2022-10-10T07:12:14.96Z</time>
      </trkpt>
      <trkpt lat="41.413130" lon="2.045850">
        <ele>271.60</ele>
        <time>2022-10-10T07:12:15.82Z</time>
      </trkpt>
      <trkpt lat="41.413000" lon="2.045890">
        <ele>270.00</ele>
        <time>2022-10-10T07:12:16.71Z</time>
      </trkpt>
      <trkpt lat="41.412900" lon="2.045880">
        <ele>268.60</ele>
        <time>2022-10-10T07:12:17.38Z</time>
      </trkpt>
      <trkpt lat="41.412820" lon="2.045850">
        <ele>266.90</ele>
        <time>2022-10-10T07:12:17.93Z</time>
      </trkpt>
      <trkpt lat="41.412750" lon="2.045820">
        <ele>265.40</ele>
        <time>2022-10-10T07:12:18.42Z</time>
      </trkpt>
      <trkpt lat="41.412660" lon="2.045780">
        <ele>263.70</ele>
        <time>2022-10-10T07:12:19.06Z</time>
      </trkpt>
      <trkpt lat="41.412550" lon="2.045710">
        <ele>261.60</ele>
        <time>2022-10-10T07:12:19.87Z</time>
      </trkpt>
      <trkpt lat="41.412480" lon="2.045640">
        <ele>260.40</ele>
        <time>2022-10-10T07:12:20.45Z</time>
      </trkpt>
      <trkpt lat="41.412430" lon="2.045620">
        <ele>260.60</ele>
        <time>2022-10-10T07:12:20.80Z</time>
      </trkpt>
      <trkpt lat="41.412360" lon="2.045610">
        <ele>261.10</ele>
        <time>2022-10-10T07:12:21.27Z</time>
      </trkpt>
      <trkpt lat="41.412290" lon="2.045600">
        <ele>261.70</ele>
        <time>2022-10-10T07:12:21.74Z</time>
      </trkpt>
      <trkpt lat="41.412200" lon="2.045640">
        <ele>262.50</ele>
        <time>2022-10-10T07:12:22.37Z</time>
      </trkpt>
      <trkpt lat="41.412150" lon="2.045700">
        <ele>262.60</ele>
        <time>2022-10-10T07:12:22.82Z</time>
      </trkpt>
      <trkpt lat="41.412100" lon="2.045790">
        <ele>262.90</ele>
        <time>2022-10-10T07:12:23.38Z</time>
      </trkpt>
      <trkpt lat="41.412080" lon="2.045930">
        <ele>263.90</ele>
        <time>2022-10-10T07:12:24.09Z</time>
      </trkpt>
      <trkpt lat="41.412080" lon="2.046080">
        <ele>265.20</ele>
        <time>2022-10-10T07:12:24.84Z</time>
      </trkpt>
      <trkpt lat="41.412070" lon="2.046230">
        <ele>265.80</ele>
        <time>2022-10-10T07:12:25.60Z</time>
      </trkpt>
      <trkpt lat="41.412040" lon="2.046400">
        <ele>266.10</ele>
        <time>2022-10-10T07:12:26.47Z</time>
      </trkpt>
      <trkpt lat="41.412010" lon="2.046560">
        <ele>267.60</ele>
        <time>2022-10-10T07:12:27.29Z</time>
      </trkpt>
      <trkpt lat="41.411950" lon="2.046750">
        <ele>269.50</ele>
        <time>2022-10-10T07:12:28.32Z</time>
      </trkpt>
      <trkpt lat="41.411930" lon="2.046940">
        <ele>272.20</ele>
        <time>2022-10-10T07:12:29.28Z</time>
      </trkpt>
      <trkpt lat="41.411910" lon="2.047070">
        <ele>273.50</ele>
        <time>2022-10-10T07:12:29.95Z</time>
      </trkpt>
      <trkpt lat="41.411830" lon="2.047260">
        <ele>272.70</ele>
        <time>2022-10-10T07:12:31.04Z</time>
      </trkpt>
      <trkpt lat="41.411810" lon="2.047290">
        <ele>272.10</ele>
        <time>2022-10-10T07:12:31.24Z</time>
      </trkpt>
      <trkpt lat="41.411810" lon="2.047290">
        <ele>272.10</ele>
        <time>2022-10-10T07:12:31.30Z</time>
      </trkpt>
      <trkpt lat="41.411810" lon="2.047290">
        <ele>272.10</ele>
        <time>2022-10-10T07:12:31.36Z</time>
      </trkpt>
      <trkpt lat="41.411770" lon="2.047340">
        <ele>270.80</ele>
        <time>2022-10-10T07:12:31.72Z</time>
      </trkpt>
      <trkpt lat="41.411700" lon="2.047410">
        <ele>268.30</ele>
        <time>2022-10-10T07:12:32.31Z</time>
      </trkpt>
      <trkpt lat="41.411640" lon="2.047470">
        <ele>266.90</ele>
        <time>2022-10-10T07:12:32.81Z</time>
      </trkpt>
      <trkpt lat="41.411590" lon="2.047560">
        <ele>266.90</ele>
        <time>2022-10-10T07:12:33.37Z</time>
      </trkpt>
      <trkpt lat="41.411570" lon="2.047680">
        <ele>268.20</ele>
        <time>2022-10-10T07:12:33.98Z</time>
      </trkpt>
      <trkpt lat="41.411550" lon="2.047760">
        <ele>268.80</ele>
        <time>2022-10-10T07:12:34.40Z</time>
      </trkpt>
      <trkpt lat="41.411550" lon="2.047870">
        <ele>269.20</ele>
        <time>2022-10-10T07:12:34.95Z</time>
      </trkpt>
      <trkpt lat="41.411550" lon="2.047920">
        <ele>269.30</ele>
        <time>2022-10-10T07:12:35.20Z</time>
      </trkpt>
      <trkpt lat="41.411540" lon="2.047980">
        <ele>269.10</ele>
        <time>2022-10-10T07:12:35.51Z</time>
      </trkpt>
      <trkpt lat="41.411540" lon="2.048040">
        <ele>269.20</ele>
        <time>2022-10-10T07:12:35.81Z</time>
      </trkpt>
      <trkpt lat="41.411590" lon="2.048120">
        <ele>270.20</ele>
        <time>2022-10-10T07:12:36.33Z</time>
      </trkpt>
      <trkpt lat="41.411640" lon="2.048210">
        <ele>271.30</ele>
        <time>2022-10-10T07:12:36.89Z</time>
      </trkpt>
      <trkpt lat="41.411660" lon="2.048270">
        <ele>271.80</ele>
        <time>2022-10-10T07:12:37.22Z</time>
      </trkpt>
      <trkpt lat="41.411700" lon="2.048330">
        <ele>273.10</ele>
        <time>2022-10-10T07:12:37.62Z</time>
      </trkpt>
      <trkpt lat="41.411730" lon="2.048390">
        <ele>274.00</ele>
        <time>2022-10-10T07:12:37.98Z</time>
      </trkpt>
      <trkpt lat="41.411760" lon="2.048470">
        <ele>275.00</ele>
        <time>2022-10-10T07:12:38.43Z</time>
      </trkpt>
      <trkpt lat="41.411780" lon="2.048550">
        <ele>275.70</ele>
        <time>2022-10-10T07:12:38.85Z</time>
      </trkpt>
      <trkpt lat="41.411800" lon="2.048610">
        <ele>276.30</ele>
        <time>2022-10-10T07:12:39.18Z</time>
      </trkpt>
      <trkpt lat="41.411800" lon="2.048650">
        <ele>276.40</ele>
        <time>2022-10-10T07:12:39.38Z</time>
      </trkpt>
      <trkpt lat="41.411810" lon="2.048680">
        <ele>276.80</ele>
        <time>2022-10-10T07:12:39.54Z</time>
      </trkpt>
      <trkpt lat="41.411800" lon="2.048710">
        <ele>276.50</ele>
        <time>2022-10-10T07:12:39.71Z</time>
      </trkpt>
      <trkpt lat="41.411800" lon="2.048740">
        <ele>276.60</ele>
        <time>2022-10-10T07:12:39.86Z</time>
      </trkpt>
      <trkpt lat="41.411800" lon="2.048790">
        <ele>276.60</ele>
        <time>2022-10-10T07:12:40.11Z</time>
      </trkpt>
      <trkpt lat="41.411800" lon="2.048830">
        <ele>276.70</ele>
        <time>2022-10-10T07:12:40.31Z</time>
      </trkpt>
      <trkpt lat="41.411790" lon="2.048860">
        <ele>276.50</ele>
        <time>2022-10-10T07:12:40.47Z</time>
      </trkpt>
      <trkpt lat="41.411770" lon="2.048900">
        <ele>276.00</ele>
        <time>2022-10-10T07:12:40.71Z</time>
      </trkpt>
      <trkpt lat="41.411750" lon="2.048930">
        <ele>275.30</ele>
        <time>2022-10-10T07:12:40.91Z</time>
      </trkpt>
      <trkpt lat="41.411760" lon="2.048950">
        <ele>275.50</ele>
        <time>2022-10-10T07:12:41.03Z</time>
      </trkpt>
      <trkpt lat="41.411770" lon="2.048980">
        <ele>275.80</ele>
        <time>2022-10-10T07:12:41.20Z</time>
      </trkpt>
      <trkpt lat="41.411770" lon="2.049010">
        <ele>275.70</ele>
        <time>2022-10-10T07:12:41.35Z</time>
      </trkpt>
      <trkpt lat="41.411770" lon="2.049030">
        <ele>275.70</ele>
        <time>2022-10-10T07:12:41.45Z</time>
      </trkpt>
      <trkpt lat="41.411740" lon="2.049060">
        <ele>274.70</ele>
        <time>2022-10-10T07:12:41.70Z</time>
      </trkpt>
      <trkpt lat="41.411720" lon="2.049080">
        <ele>274.00</ele>
        <time>2022-10-10T07:12:41.86Z</time>
      </trkpt>
      <trkpt lat="41.411690" lon="2.049090">
        <ele>273.00</ele>
        <time>2022-10-10T07:12:42.07Z</time>
      </trkpt>
      <trkpt lat="41.411660" lon="2.049100">
        <ele>272.10</ele>
        <time>2022-10-10T07:12:42.27Z</time>
      </trkpt>
      <trkpt lat="41.411640" lon="2.049100">
        <ele>271.70</ele>
        <time>2022-10-10T07:12:42.41Z</time>
      </trkpt>
      <trkpt lat="41.411620" lon="2.049110">
        <ele>271.40</ele>
        <time>2022-10-10T07:12:42.55Z</time>
      </trkpt>
      <trkpt lat="41.411590" lon="2.049120">
        <ele>270.80</ele>
        <time>2022-10-10T07:12:42.76Z</time>
      </trkpt>
      <trkpt lat="41.411560" lon="2.049140">
        <ele>270.40</ele>
        <time>2022-10-10T07:12:42.98Z</time>
      </trkpt>
      <trkpt lat="41.411510" lon="2.049170">
        <ele>269.80</ele>
        <time>2022-10-10T07:12:43.35Z</time>
      </trkpt>
      <trkpt lat="41.411480" lon="2.049180">
        <ele>269.60</ele>
        <time>2022-10-10T07:12:43.55Z</time>
      </trkpt>
      <trkpt lat="41.411460" lon="2.049210">
        <ele>270.00</ele>
        <time>2022-10-10T07:12:43.75Z</time>
      </trkpt>
      <trkpt lat="41.411450" lon="2.049250">
        <ele>270.80</ele>
        <time>2022-10-10T07:12:43.96Z</time>
      </trkpt>
      <trkpt lat="41.411420" lon="2.049290">
        <ele>271.40</ele>
        <time>2022-10-10T07:12:44.25Z</time>
      </trkpt>
      <trkpt lat="41.411390" lon="2.049350">
        <ele>272.60</ele>
        <time>2022-10-10T07:12:44.61Z</time>
      </trkpt>
      <trkpt lat="41.411360" lon="2.049380">
        <ele>272.90</ele>
        <time>2022-10-10T07:12:44.86Z</time>
      </trkpt>
      <trkpt lat="41.411320" lon="2.049410">
        <ele>272.90</ele>
        <time>2022-10-10T07:12:45.16Z</time>
      </trkpt>
      <trkpt lat="41.411260" lon="2.049460">
        <ele>273.00</ele>
        <time>2022-10-10T07:12:45.63Z</time>
      </trkpt>
      <trkpt lat="41.411220" lon="2.049500">
        <ele>273.20</ele>
        <time>2022-10-10T07:12:45.97Z</time>
      </trkpt>
      <trkpt lat="41.411190" lon="2.049540">
        <ele>273.60</ele>
        <time>2022-10-10T07:12:46.25Z</time>
      </trkpt>
      <trkpt lat="41.411150" lon="2.049570">
        <ele>273.70</ele>
        <time>2022-10-10T07:12:46.56Z</time>
      </trkpt>
      <trkpt lat="41.411110" lon="2.049610">
        <ele>274.20</ele>
        <time>2022-10-10T07:12:46.89Z</time>
      </trkpt>
      <trkpt lat="41.411080" lon="2.049640">
        <ele>274.80</ele>
        <time>2022-10-10T07:12:47.14Z</time>
      </trkpt>
      <trkpt lat="41.411050" lon="2.049670">
        <ele>275.40</ele>
        <time>2022-10-10T07:12:47.39Z</time>
      </trkpt>
      <trkpt lat="41.411020" lon="2.049690">
        <ele>275.80</ele>
        <time>2022-10-10T07:12:47.61Z</time>
      </trkpt>
      <trkpt lat="41.410980" lon="2.049710">
        <ele>276.20</ele>
        <time>2022-10-10T07:12:47.90Z</time>
      </trkpt>
      <trkpt lat="41.410960" lon="2.049720">
        <ele>276.40</ele>
        <time>2022-10-10T07:12:48.04Z</time>
      </trkpt>
      <trkpt lat="41.410940" lon="2.049730">
        <ele>276.50</ele>
        <time>2022-10-10T07:12:48.18Z</time>
      </trkpt>
      <trkpt lat="41.410920" lon="2.049720">
        <ele>276.20</ele>
        <time>2022-10-10T07:12:48.32Z</time>
      </trkpt>
      <trkpt lat="41.410880" lon="2.049730">
        <ele>276.30</ele>
        <time>2022-10-10T07:12:48.60Z</time>
      </trkpt>
      <trkpt lat="41.410860" lon="2.049750">
        <ele>276.60</ele>
        <time>2022-10-10T07:12:48.76Z</time>
      </trkpt>
      <trkpt lat="41.410840" lon="2.049770">
        <ele>276.90</ele>
        <time>2022-10-10T07:12:48.93Z</time>
      </trkpt>
      <trkpt lat="41.410820" lon="2.049790">
        <ele>277.30</ele>
        <time>2022-10-10T07:12:49.10Z</time>
      </trkpt>
      <trkpt lat="41.410780" lon="2.049820">
        <ele>278.10</ele>
        <time>2022-10-10T07:12:49.40Z</time>
      </trkpt>
      <trkpt lat="41.410750" lon="2.049860">
        <ele>279.10</ele>
        <time>2022-10-10T07:12:49.69Z</time>
      </trkpt>
      <trkpt lat="41.410720" lon="2.049890">
        <ele>279.90</ele>
        <time>2022-10-10T07:12:49.94Z</time>
      </trkpt>
      <trkpt lat="41.410710" lon="2.049930">
        <ele>280.90</ele>
        <time>2022-10-10T07:12:50.15Z</time>
      </trkpt>
      <trkpt lat="41.410700" lon="2.049950">
        <ele>281.40</ele>
        <time>2022-10-10T07:12:50.27Z</time>
      </trkpt>
      <trkpt lat="41.410680" lon="2.049960">
        <ele>281.80</ele>
        <time>2022-10-10T07:12:50.41Z</time>
      </trkpt>
      <trkpt lat="41.410630" lon="2.049980">
        <ele>282.70</ele>
        <time>2022-10-10T07:12:50.76Z</time>
      </trkpt>
      <trkpt lat="41.410560" lon="2.050030">
        <ele>284.40</ele>
        <time>2022-10-10T07:12:51.29Z</time>
      </trkpt>
      <trkpt lat="41.410490" lon="2.050010">
        <ele>285.60</ele>
        <time>2022-10-10T07:12:51.76Z</time>
      </trkpt>
      <trkpt lat="41.410440" lon="2.049990">
        <ele>286.20</ele>
        <time>2022-10-10T07:12:52.11Z</time>
      </trkpt>
      <trkpt lat="41.410400" lon="2.049970">
        <ele>286.50</ele>
        <time>2022-10-10T07:12:52.40Z</time>
      </trkpt>
      <trkpt lat="41.410190" lon="2.049790">
        <ele>283.00</ele>
        <time>2022-10-10T07:12:54.06Z</time>
      </trkpt>
      <trkpt lat="41.410020" lon="2.049740">
        <ele>280.70</ele>
        <time>2022-10-10T07:12:55.22Z</time>
      </trkpt>
      <trkpt lat="41.410001" lon="2.049739">
        <ele>287.22</ele>
        <time>2016-04-09T10:41:14Z</time>
      </trkpt>
      <trkpt lat="41.409977" lon="2.049748">
        <ele>287.27</ele>
        <time>2016-04-09T10:41:14.90Z</time>
      </trkpt>
      <trkpt lat="41.409987" lon="2.049904">
        <ele>287.47</ele>
        <time>2016-04-09T10:41:18.51Z</time>
      </trkpt>
      <trkpt lat="41.409953" lon="2.049747">
        <ele>287.93</ele>
        <time>2016-04-09T10:41:26.73Z</time>
      </trkpt>
      <trkpt lat="41.409879" lon="2.049764">
        <ele>289.39</ele>
        <time>2016-04-09T10:41:53Z</time>
      </trkpt>
      <trkpt lat="41.409780" lon="2.049789">
        <ele>289.76</ele>
        <time>2016-04-09T10:42:02Z</time>
      </trkpt>
      <trkpt lat="41.409699" lon="2.049872">
        <ele>290.23</ele>
        <time>2016-04-09T10:42:12Z</time>
      </trkpt>
      <trkpt lat="41.409621" lon="2.049935">
        <ele>291.29</ele>
        <time>2016-04-09T10:42:21Z</time>
      </trkpt>
      <trkpt lat="41.409562" lon="2.050001">
        <ele>292.69</ele>
        <time>2016-04-09T10:42:31Z</time>
      </trkpt>
      <trkpt lat="41.409504" lon="2.050091">
        <ele>294.14</ele>
        <time>2016-04-09T10:42:41Z</time>
      </trkpt>
      <trkpt lat="41.409452" lon="2.050185">
        <ele>296.32</ele>
        <time>2016-04-09T10:43:07Z</time>
      </trkpt>
      <trkpt lat="41.409410" lon="2.050286">
        <ele>297.32</ele>
        <time>2016-04-09T10:43:18Z</time>
      </trkpt>
      <trkpt lat="41.409369" lon="2.050382">
        <ele>298.41</ele>
        <time>2016-04-09T10:43:27Z</time>
      </trkpt>
      <trkpt lat="41.409359" lon="2.050478">
        <ele>300.14</ele>
        <time>2016-04-09T10:43:41Z</time>
      </trkpt>
      <trkpt lat="41.409335" lon="2.050602">
        <ele>301.55</ele>
        <time>2016-04-09T10:43:49Z</time>
      </trkpt>
      <trkpt lat="41.409316" lon="2.050748">
        <ele>303.45</ele>
        <time>2016-04-09T10:44:01Z</time>
      </trkpt>
      <trkpt lat="41.409305" lon="2.050855">
        <ele>304.65</ele>
        <time>2016-04-09T10:44:10Z</time>
      </trkpt>
      <trkpt lat="41.409310" lon="2.050976">
        <ele>306.22</ele>
        <time>2016-04-09T10:44:22Z</time>
      </trkpt>
      <trkpt lat="41.409305" lon="2.051030">
        <ele>309.48</ele>
        <time>2016-04-09T10:45:17Z</time>
      </trkpt>
      <trkpt lat="41.409345" lon="2.050983">
        <ele>308.26</ele>
        <time>2016-04-09T11:02:09Z</time>
      </trkpt>
      <trkpt lat="41.409374" lon="2.050953">
        <ele>308.99</ele>
        <time>2016-04-09T11:02:24Z</time>
      </trkpt>
      <trkpt lat="41.409427" lon="2.050840">
        <ele>309.78</ele>
        <time>2016-04-09T11:02:34Z</time>
      </trkpt>
      <trkpt lat="41.409482" lon="2.050745">
        <ele>310.35</ele>
        <time>2016-04-09T11:02:42Z</time>
      </trkpt>
      <trkpt lat="41.409528" lon="2.050635">
        <ele>311.10</ele>
        <time>2016-04-09T11:02:52Z</time>
      </trkpt>
      <trkpt lat="41.409603" lon="2.050549">
        <ele>312.31</ele>
        <time>2016-04-09T11:03:08Z</time>
      </trkpt>
      <trkpt lat="41.409689" lon="2.050480">
        <ele>313.01</ele>
        <time>2016-04-09T11:03:18Z</time>
      </trkpt>
      <trkpt lat="41.409780" lon="2.050480">
        <ele>313.95</ele>
        <time>2016-04-09T11:03:27Z</time>
      </trkpt>
      <trkpt lat="41.409847" lon="2.050569">
        <ele>315.06</ele>
        <time>2016-04-09T11:03:36Z</time>
      </trkpt>
      <trkpt lat="41.409867" lon="2.050688">
        <ele>316.46</ele>
        <time>2016-04-09T11:03:45Z</time>
      </trkpt>
      <trkpt lat="41.409847" lon="2.050813">
        <ele>318.15</ele>
        <time>2016-04-09T11:03:55Z</time>
      </trkpt>
      <trkpt lat="41.409797" lon="2.050918">
        <ele>319.25</ele>
        <time>2016-04-09T11:04:05Z</time>
      </trkpt>
      <trkpt lat="41.409752" lon="2.051028">
        <ele>320.55</ele>
        <time>2016-04-09T11:04:14Z</time>
      </trkpt>
      <trkpt lat="41.409750" lon="2.051153">
        <ele>321.73</ele>
        <time>2016-04-09T11:04:23Z</time>
      </trkpt>
      <trkpt lat="41.409768" lon="2.051273">
        <ele>323.54</ele>
        <time>2016-04-09T11:04:44Z</time>
      </trkpt>
      <trkpt lat="41.409818" lon="2.051382">
        <ele>324.12</ele>
        <time>2016-04-09T11:04:53Z</time>
      </trkpt>
      <trkpt lat="41.409880" lon="2.051430">
        <ele>326.71</ele>
        <time>2016-04-09T11:05:33Z</time>
      </trkpt>
      <trkpt lat="41.409968" lon="2.051390">
        <ele>327.01</ele>
        <time>2016-04-09T11:05:40Z</time>
      </trkpt>
      <trkpt lat="41.410047" lon="2.051305">
        <ele>327.55</ele>
        <time>2016-04-09T11:05:48Z</time>
      </trkpt>
      <trkpt lat="41.410119" lon="2.051219">
        <ele>328.43</ele>
        <time>2016-04-09T11:05:56Z</time>
      </trkpt>
      <trkpt lat="41.410197" lon="2.051153">
        <ele>329.72</ele>
        <time>2016-04-09T11:06:07Z</time>
      </trkpt>
      <trkpt lat="41.410293" lon="2.051187">
        <ele>331.28</ele>
        <time>2016-04-09T11:06:18Z</time>
      </trkpt>
      <trkpt lat="41.410340" lon="2.051290">
        <ele>333.14</ele>
        <time>2016-04-09T11:06:30Z</time>
      </trkpt>
      <trkpt lat="41.410264" lon="2.051357">
        <ele>335.05</ele>
        <time>2016-04-09T11:06:42Z</time>
      </trkpt>
      <trkpt lat="41.410208" lon="2.051455">
        <ele>336.63</ele>
        <time>2016-04-09T11:06:53Z</time>
      </trkpt>
      <trkpt lat="41.410255" lon="2.051560">
        <ele>338.27</ele>
        <time>2016-04-09T11:07:12Z</time>
      </trkpt>
      <trkpt lat="41.410315" lon="2.051665">
        <ele>339.04</ele>
        <time>2016-04-09T11:07:21Z</time>
      </trkpt>
      <trkpt lat="41.410395" lon="2.051725">
        <ele>341.17</ele>
        <time>2016-04-09T11:07:41Z</time>
      </trkpt>
      <trkpt lat="41.410489" lon="2.051750">
        <ele>342.22</ele>
        <time>2016-04-09T11:07:51Z</time>
      </trkpt>
      <trkpt lat="41.410587" lon="2.051742">
        <ele>343.61</ele>
        <time>2016-04-09T11:08:01Z</time>
      </trkpt>
      <trkpt lat="41.410685" lon="2.051737">
        <ele>344.95</ele>
        <time>2016-04-09T11:08:10Z</time>
      </trkpt>
      <trkpt lat="41.410775" lon="2.051750">
        <ele>345.74</ele>
        <time>2016-04-09T11:08:18Z</time>
      </trkpt>
      <trkpt lat="41.410685" lon="2.051765">
        <ele>348.15</ele>
        <time>2016-04-09T11:08:59Z</time>
      </trkpt>
      <trkpt lat="41.410598" lon="2.051810">
        <ele>348.03</ele>
        <time>2016-04-09T11:09:50Z</time>
      </trkpt>
      <trkpt lat="41.410547" lon="2.051914">
        <ele>350.24</ele>
        <time>2016-04-09T11:10:12Z</time>
      </trkpt>
      <trkpt lat="41.410522" lon="2.052035">
        <ele>351.75</ele>
        <time>2016-04-09T11:10:21Z</time>
      </trkpt>
      <trkpt lat="41.410537" lon="2.052155">
        <ele>352.95</ele>
        <time>2016-04-09T11:10:30Z</time>
      </trkpt>
      <trkpt lat="41.410535" lon="2.052275">
        <ele>354.30</ele>
        <time>2016-04-09T11:10:50Z</time>
      </trkpt>
      <trkpt lat="41.410596" lon="2.052409">
        <ele>359.32</ele>
        <time>2016-04-09T11:11:30Z</time>
      </trkpt>
      <trkpt lat="41.410569" lon="2.052532">
        <ele>361.67</ele>
        <time>2016-04-09T11:16:24Z</time>
      </trkpt>
      <trkpt lat="41.410538" lon="2.052421">
        <ele>358.71</ele>
        <time>2016-04-09T11:19:27Z</time>
      </trkpt>
      <trkpt lat="41.410547" lon="2.052283">
        <ele>353.01</ele>
        <time>2016-04-09T11:20:48Z</time>
      </trkpt>
      <trkpt lat="41.410620" lon="2.052133">
        <ele>356.95</ele>
        <time>2016-04-09T11:22:20Z</time>
      </trkpt>
      <trkpt lat="41.410551" lon="2.052086">
        <ele>349.99</ele>
        <time>2016-04-09T11:24:13Z</time>
      </trkpt>
      <trkpt lat="41.410542" lon="2.052012">
        <ele>354.00</ele>
        <time>2016-04-09T11:25:50Z</time>
      </trkpt>
      <trkpt lat="41.410459" lon="2.052015">
        <ele>346.86</ele>
        <time>2016-04-09T11:26:00Z</time>
      </trkpt>
      <trkpt lat="41.410368" lon="2.052062">
        <ele>353.84</ele>
        <time>2016-04-09T11:26:14Z</time>
      </trkpt>
      <trkpt lat="41.410472" lon="2.051997">
        <ele>353.35</ele>
        <time>2016-04-09T11:30:09Z</time>
      </trkpt>
      <trkpt lat="41.410559" lon="2.052035">
        <ele>353.68</ele>
        <time>2016-04-09T11:30:22Z</time>
      </trkpt>
      <trkpt lat="41.410590" lon="2.052155">
        <ele>353.90</ele>
        <time>2016-04-09T11:30:37Z</time>
      </trkpt>
      <trkpt lat="41.410613" lon="2.052194">
        <ele>356.84</ele>
        <time>2016-04-09T11:36:47Z</time>
      </trkpt>
      <trkpt lat="41.410598" lon="2.052313">
        <ele>356.92</ele>
        <time>2016-04-09T11:37:21Z</time>
      </trkpt>
      <trkpt lat="41.410498" lon="2.052335">
        <ele>355.62</ele>
        <time>2016-04-09T11:38:07Z</time>
      </trkpt>
      <trkpt lat="41.410498" lon="2.052280">
        <ele>354.31</ele>
        <time>2016-04-09T11:40:38Z</time>
      </trkpt>
      <trkpt lat="41.410572" lon="2.052350">
        <ele>350.29</ele>
        <time>2016-04-09T11:43:50Z</time>
      </trkpt>
      <trkpt lat="41.410607" lon="2.052225">
        <ele>352.13</ele>
        <time>2016-04-09T11:44:04Z</time>
      </trkpt>
      <trkpt lat="41.410547" lon="2.052122">
        <ele>350.98</ele>
        <time>2016-04-09T11:44:14Z</time>
      </trkpt>
      <trkpt lat="41.410555" lon="2.051967">
        <ele>346.98</ele>
        <time>2016-04-09T11:44:23Z</time>
      </trkpt>
      <trkpt lat="41.410606" lon="2.051855">
        <ele>344.34</ele>
        <time>2016-04-09T11:44:36Z</time>
      </trkpt>
      <trkpt lat="41.410722" lon="2.051777">
        <ele>351.11</ele>
        <time>2016-04-09T11:45:00Z</time>
      </trkpt>
      <trkpt lat="41.410817" lon="2.051742">
        <ele>349.95</ele>
        <time>2016-04-09T11:45:11Z</time>
      </trkpt>
      <trkpt lat="41.410907" lon="2.051797">
        <ele>349.18</ele>
        <time>2016-04-09T11:45:23Z</time>
      </trkpt>
      <trkpt lat="41.410980" lon="2.051870">
        <ele>349.26</ele>
        <time>2016-04-09T11:45:33Z</time>
      </trkpt>
      <trkpt lat="41.411044" lon="2.051958">
        <ele>349.65</ele>
        <time>2016-04-09T11:45:43Z</time>
      </trkpt>
      <trkpt lat="41.411068" lon="2.052079">
        <ele>350.62</ele>
        <time>2016-04-09T11:45:54Z</time>
      </trkpt>
      <trkpt lat="41.411044" lon="2.052195">
        <ele>352.21</ele>
        <time>2016-04-09T11:46:06Z</time>
      </trkpt>
      <trkpt lat="41.411015" lon="2.052312">
        <ele>353.68</ele>
        <time>2016-04-09T11:46:19Z</time>
      </trkpt>
      <trkpt lat="41.411017" lon="2.052445">
        <ele>355.13</ele>
        <time>2016-04-09T11:46:30Z</time>
      </trkpt>
      <trkpt lat="41.411035" lon="2.052570">
        <ele>356.36</ele>
        <time>2016-04-09T11:46:39Z</time>
      </trkpt>
      <trkpt lat="41.411095" lon="2.052670">
        <ele>357.89</ele>
        <time>2016-04-09T11:46:52Z</time>
      </trkpt>
      <trkpt lat="41.411193" lon="2.052649">
        <ele>358.64</ele>
        <time>2016-04-09T11:47:06Z</time>
      </trkpt>
      <trkpt lat="41.411287" lon="2.052600">
        <ele>359.36</ele>
        <time>2016-04-09T11:47:16Z</time>
      </trkpt>
      <trkpt lat="41.411365" lon="2.052530">
        <ele>360.26</ele>
        <time>2016-04-09T11:47:24Z</time>
      </trkpt>
      <trkpt lat="41.411450" lon="2.052464">
        <ele>361.38</ele>
        <time>2016-04-09T11:47:33Z</time>
      </trkpt>
      <trkpt lat="41.411535" lon="2.052405">
        <ele>362.09</ele>
        <time>2016-04-09T11:47:45Z</time>
      </trkpt>
      <trkpt lat="41.411625" lon="2.052395">
        <ele>362.96</ele>
        <time>2016-04-09T11:47:54Z</time>
      </trkpt>
      <trkpt lat="41.411718" lon="2.052410">
        <ele>364.12</ele>
        <time>2016-04-09T11:48:04Z</time>
      </trkpt>
      <trkpt lat="41.411797" lon="2.052475">
        <ele>365.41</ele>
        <time>2016-04-09T11:48:14Z</time>
      </trkpt>
      <trkpt lat="41.411857" lon="2.052572">
        <ele>366.51</ele>
        <time>2016-04-09T11:48:25Z</time>
      </trkpt>
      <trkpt lat="41.411912" lon="2.052680">
        <ele>367.68</ele>
        <time>2016-04-09T11:48:35Z</time>
      </trkpt>
      <trkpt lat="41.411973" lon="2.052775">
        <ele>368.69</ele>
        <time>2016-04-09T11:48:44Z</time>
      </trkpt>
      <trkpt lat="41.412042" lon="2.052858">
        <ele>369.90</ele>
        <time>2016-04-09T11:48:53Z</time>
      </trkpt>
      <trkpt lat="41.412022" lon="2.052982">
        <ele>371.31</ele>
        <time>2016-04-09T11:49:05Z</time>
      </trkpt>
      <trkpt lat="41.411929" lon="2.052984">
        <ele>371.95</ele>
        <time>2016-04-09T11:49:15Z</time>
      </trkpt>
      <trkpt lat="41.411839" lon="2.052937">
        <ele>372.77</ele>
        <time>2016-04-09T11:49:25Z</time>
      </trkpt>
      <trkpt lat="41.411742" lon="2.052945">
        <ele>373.77</ele>
        <time>2016-04-09T11:49:36Z</time>
      </trkpt>
      <trkpt lat="41.411613" lon="2.053062">
        <ele>376.33</ele>
        <time>2016-04-09T11:50:21Z</time>
      </trkpt>
      <trkpt lat="41.411855" lon="2.053119">
        <ele>376.36</ele>
        <time>2016-04-09T11:50:29Z</time>
      </trkpt>
      <trkpt lat="41.411935" lon="2.053197">
        <ele>376.31</ele>
        <time>2016-04-09T11:50:37Z</time>
      </trkpt>
      <trkpt lat="41.412007" lon="2.053277">
        <ele>376.31</ele>
        <time>2016-04-09T11:50:45Z</time>
      </trkpt>
      <trkpt lat="41.412080" lon="2.053360">
        <ele>376.53</ele>
        <time>2016-04-09T11:50:54Z</time>
      </trkpt>
      <trkpt lat="41.412154" lon="2.053430">
        <ele>377.08</ele>
        <time>2016-04-09T11:51:03Z</time>
      </trkpt>
      <trkpt lat="41.412232" lon="2.053495">
        <ele>377.52</ele>
        <time>2016-04-09T11:51:13Z</time>
      </trkpt>
      <trkpt lat="41.412327" lon="2.053497">
        <ele>378.42</ele>
        <time>2016-04-09T11:51:24Z</time>
      </trkpt>
      <trkpt lat="41.412415" lon="2.053474">
        <ele>379.53</ele>
        <time>2016-04-09T11:51:32Z</time>
      </trkpt>
      <trkpt lat="41.412510" lon="2.053477">
        <ele>380.66</ele>
        <time>2016-04-09T11:51:41Z</time>
      </trkpt>
      <trkpt lat="41.412604" lon="2.053467">
        <ele>382.38</ele>
        <time>2016-04-09T11:51:52Z</time>
      </trkpt>
      <trkpt lat="41.412590" lon="2.053589">
        <ele>384.74</ele>
        <time>2016-04-09T11:52:12Z</time>
      </trkpt>
      <trkpt lat="41.412508" lon="2.053642">
        <ele>385.28</ele>
        <time>2016-04-09T11:52:21Z</time>
      </trkpt>
      <trkpt lat="41.412418" lon="2.053660">
        <ele>385.90</ele>
        <time>2016-04-09T11:52:29Z</time>
      </trkpt>
      <trkpt lat="41.412327" lon="2.053662">
        <ele>387.02</ele>
        <time>2016-04-09T11:52:37Z</time>
      </trkpt>
      <trkpt lat="41.412232" lon="2.053672">
        <ele>388.41</ele>
        <time>2016-04-09T11:52:47Z</time>
      </trkpt>
      <trkpt lat="41.412137" lon="2.053670">
        <ele>389.79</ele>
        <time>2016-04-09T11:52:59Z</time>
      </trkpt>
      <trkpt lat="41.412047" lon="2.053665">
        <ele>391.58</ele>
        <time>2016-04-09T11:53:10Z</time>
      </trkpt>
      <trkpt lat="41.411950" lon="2.053677">
        <ele>392.42</ele>
        <time>2016-04-09T11:53:20Z</time>
      </trkpt>
      <trkpt lat="41.411858" lon="2.053702">
        <ele>393.57</ele>
        <time>2016-04-09T11:53:30Z</time>
      </trkpt>
      <trkpt lat="41.411770" lon="2.053738">
        <ele>394.96</ele>
        <time>2016-04-09T11:53:42Z</time>
      </trkpt>
      <trkpt lat="41.411725" lon="2.053850">
        <ele>397.17</ele>
        <time>2016-04-09T11:53:54Z</time>
      </trkpt>
      <trkpt lat="41.411745" lon="2.053972">
        <ele>398.91</ele>
        <time>2016-04-09T11:54:05Z</time>
      </trkpt>
      <trkpt lat="41.411777" lon="2.054085">
        <ele>401.17</ele>
        <time>2016-04-09T11:54:20Z</time>
      </trkpt>
      <trkpt lat="41.411853" lon="2.054152">
        <ele>403.32</ele>
        <time>2016-04-09T11:54:34Z</time>
      </trkpt>
      <trkpt lat="41.411930" lon="2.054229">
        <ele>405.59</ele>
        <time>2016-04-09T11:54:49Z</time>
      </trkpt>
      <trkpt lat="41.412020" lon="2.054252">
        <ele>408.12</ele>
        <time>2016-04-09T11:55:06Z</time>
      </trkpt>
      <trkpt lat="41.412105" lon="2.054293">
        <ele>409.31</ele>
        <time>2016-04-09T11:55:16Z</time>
      </trkpt>
      <trkpt lat="41.412202" lon="2.054329">
        <ele>410.21</ele>
        <time>2016-04-09T11:55:25Z</time>
      </trkpt>
      <trkpt lat="41.412290" lon="2.054387">
        <ele>411.62</ele>
        <time>2016-04-09T11:55:34Z</time>
      </trkpt>
      <trkpt lat="41.412384" lon="2.054423">
        <ele>412.63</ele>
        <time>2016-04-09T11:55:44Z</time>
      </trkpt>
      <trkpt lat="41.412477" lon="2.054477">
        <ele>414.02</ele>
        <time>2016-04-09T11:55:55Z</time>
      </trkpt>
      <trkpt lat="41.412564" lon="2.054517">
        <ele>415.58</ele>
        <time>2016-04-09T11:56:05Z</time>
      </trkpt>
      <trkpt lat="41.412652" lon="2.054547">
        <ele>416.68</ele>
        <time>2016-04-09T11:56:16Z</time>
      </trkpt>
      <trkpt lat="41.412742" lon="2.054580">
        <ele>418.09</ele>
        <time>2016-04-09T11:56:25Z</time>
      </trkpt>
      <trkpt lat="41.412829" lon="2.054622">
        <ele>418.80</ele>
        <time>2016-04-09T11:56:34Z</time>
      </trkpt>
      <trkpt lat="41.412899" lon="2.054710">
        <ele>420.17</ele>
        <time>2016-04-09T11:56:47Z</time>
      </trkpt>
      <trkpt lat="41.412925" lon="2.054825">
        <ele>422.38</ele>
        <time>2016-04-09T11:57:01Z</time>
      </trkpt>
      <trkpt lat="41.412935" lon="2.054948">
        <ele>427.12</ele>
        <time>2016-04-09T11:57:33Z</time>
      </trkpt>
      <trkpt lat="41.412850" lon="2.054995">
        <ele>428.61</ele>
        <time>2016-04-09T11:57:49Z</time>
      </trkpt>
      <trkpt lat="41.412755" lon="2.055002">
        <ele>429.18</ele>
        <time>2016-04-09T11:57:59Z</time>
      </trkpt>
      <trkpt lat="41.412665" lon="2.054999">
        <ele>429.62</ele>
        <time>2016-04-09T11:58:10Z</time>
      </trkpt>
      <trkpt lat="41.412570" lon="2.055002">
        <ele>430.79</ele>
        <time>2016-04-09T11:58:27Z</time>
      </trkpt>
      <trkpt lat="41.412480" lon="2.055022">
        <ele>432.06</ele>
        <time>2016-04-09T11:58:46Z</time>
      </trkpt>
      <trkpt lat="41.412389" lon="2.055032">
        <ele>433.36</ele>
        <time>2016-04-09T11:59:05Z</time>
      </trkpt>
      <trkpt lat="41.412293" lon="2.055050">
        <ele>435.30</ele>
        <time>2016-04-09T11:59:23Z</time>
      </trkpt>
      <trkpt lat="41.412213" lon="2.055107">
        <ele>437.45</ele>
        <time>2016-04-09T11:59:45Z</time>
      </trkpt>
      <trkpt lat="41.412229" lon="2.055227">
        <ele>440.39</ele>
        <time>2016-04-09T12:01:28Z</time>
      </trkpt>
      <trkpt lat="41.412303" lon="2.055145">
        <ele>439.01</ele>
        <time>2016-04-09T12:02:00Z</time>
      </trkpt>
      <trkpt lat="41.412393" lon="2.055167">
        <ele>437.26</ele>
        <time>2016-04-09T12:02:17Z</time>
      </trkpt>
      <trkpt lat="41.412490" lon="2.055155">
        <ele>435.01</ele>
        <time>2016-04-09T12:02:32Z</time>
      </trkpt>
      <trkpt lat="41.412580" lon="2.055163">
        <ele>433.31</ele>
        <time>2016-04-09T12:02:43Z</time>
      </trkpt>
      <trkpt lat="41.412670" lon="2.055129">
        <ele>432.11</ele>
        <time>2016-04-09T12:02:54Z</time>
      </trkpt>
      <trkpt lat="41.412760" lon="2.055103">
        <ele>431.59</ele>
        <time>2016-04-09T12:03:03Z</time>
      </trkpt>
      <trkpt lat="41.412850" lon="2.055094">
        <ele>430.75</ele>
        <time>2016-04-09T12:03:13Z</time>
      </trkpt>
      <trkpt lat="41.412937" lon="2.055047">
        <ele>429.96</ele>
        <time>2016-04-09T12:03:29Z</time>
      </trkpt>
      <trkpt lat="41.413032" lon="2.055045">
        <ele>429.45</ele>
        <time>2016-04-09T12:03:42Z</time>
      </trkpt>
      <trkpt lat="41.413120" lon="2.055088">
        <ele>428.27</ele>
        <time>2016-04-09T12:04:03Z</time>
      </trkpt>
      <trkpt lat="41.413193" lon="2.055173">
        <ele>426.68</ele>
        <time>2016-04-09T12:04:20Z</time>
      </trkpt>
      <trkpt lat="41.413284" lon="2.055200">
        <ele>424.43</ele>
        <time>2016-04-09T12:04:36Z</time>
      </trkpt>
      <trkpt lat="41.413349" lon="2.055290">
        <ele>422.56</ele>
        <time>2016-04-09T12:05:06Z</time>
      </trkpt>
      <trkpt lat="41.413422" lon="2.055362">
        <ele>419.96</ele>
        <time>2016-04-09T12:05:25Z</time>
      </trkpt>
      <trkpt lat="41.413507" lon="2.055402">
        <ele>415.91</ele>
        <time>2016-04-09T12:05:51Z</time>
      </trkpt>
      <trkpt lat="41.413590" lon="2.055479">
        <ele>413.11</ele>
        <time>2016-04-09T12:06:12Z</time>
      </trkpt>
      <trkpt lat="41.413677" lon="2.055533">
        <ele>411.37</ele>
        <time>2016-04-09T12:06:24Z</time>
      </trkpt>
      <trkpt lat="41.413768" lon="2.055543">
        <ele>408.42</ele>
        <time>2016-04-09T12:06:40Z</time>
      </trkpt>
      <trkpt lat="41.413857" lon="2.055567">
        <ele>404.98</ele>
        <time>2016-04-09T12:06:59Z</time>
      </trkpt>
      <trkpt lat="41.413957" lon="2.055555">
        <ele>402.72</ele>
        <time>2016-04-09T12:07:14Z</time>
      </trkpt>
      <trkpt lat="41.414047" lon="2.055584">
        <ele>401.53</ele>
        <time>2016-04-09T12:07:23Z</time>
      </trkpt>
      <trkpt lat="41.414144" lon="2.055579">
        <ele>399.10</ele>
        <time>2016-04-09T12:07:35Z</time>
      </trkpt>
      <trkpt lat="41.414239" lon="2.055577">
        <ele>397.32</ele>
        <time>2016-04-09T12:07:49Z</time>
      </trkpt>
      <trkpt lat="41.414330" lon="2.055562">
        <ele>395.84</ele>
        <time>2016-04-09T12:08:05Z</time>
      </trkpt>
      <trkpt lat="41.414422" lon="2.055547">
        <ele>393.59</ele>
        <time>2016-04-09T12:08:25Z</time>
      </trkpt>
      <trkpt lat="41.414514" lon="2.055537">
        <ele>390.32</ele>
        <time>2016-04-09T12:08:47Z</time>
      </trkpt>
      <trkpt lat="41.414604" lon="2.055565">
        <ele>386.93</ele>
        <time>2016-04-09T12:09:06Z</time>
      </trkpt>
      <trkpt lat="41.414685" lon="2.055630">
        <ele>383.91</ele>
        <time>2016-04-09T12:09:24Z</time>
      </trkpt>
      <trkpt lat="41.414762" lon="2.055697">
        <ele>381.23</ele>
        <time>2016-04-09T12:09:40Z</time>
      </trkpt>
      <trkpt lat="41.414829" lon="2.055787">
        <ele>378.85</ele>
        <time>2016-04-09T12:09:54Z</time>
      </trkpt>
      <trkpt lat="41.414912" lon="2.055863">
        <ele>376.35</ele>
        <time>2016-04-09T12:10:11Z</time>
      </trkpt>
      <trkpt lat="41.414970" lon="2.055955">
        <ele>372.94</ele>
        <time>2016-04-09T12:10:39Z</time>
      </trkpt>
      <trkpt lat="41.415027" lon="2.056057">
        <ele>370.35</ele>
        <time>2016-04-09T12:11:05Z</time>
      </trkpt>
      <trkpt lat="41.415072" lon="2.056162">
        <ele>367.99</ele>
        <time>2016-04-09T12:11:21Z</time>
      </trkpt>
      <trkpt lat="41.415047" lon="2.056278">
        <ele>365.30</ele>
        <time>2016-04-09T12:11:37Z</time>
      </trkpt>
      <trkpt lat="41.415060" lon="2.056400">
        <ele>361.89</ele>
        <time>2016-04-09T12:11:54Z</time>
      </trkpt>
      <trkpt lat="41.415045" lon="2.056525">
        <ele>357.47</ele>
        <time>2016-04-09T12:12:34Z</time>
      </trkpt>
      <trkpt lat="41.415050" lon="2.056647">
        <ele>353.74</ele>
        <time>2016-04-09T12:12:53Z</time>
      </trkpt>
      <trkpt lat="41.415103" lon="2.056750">
        <ele>350.92</ele>
        <time>2016-04-09T12:13:08Z</time>
      </trkpt>
      <trkpt lat="41.415149" lon="2.056860">
        <ele>348.11</ele>
        <time>2016-04-09T12:13:24Z</time>
      </trkpt>
      <trkpt lat="41.415203" lon="2.056962">
        <ele>345.74</ele>
        <time>2016-04-09T12:13:37Z</time>
      </trkpt>
      <trkpt lat="41.415229" lon="2.057035">
        <ele>341.79</ele>
        <time>2016-04-09T12:13:59Z</time>
      </trkpt>
      <trkpt lat="41.415193" lon="2.057156">
        <ele>339.89</ele>
        <time>2016-04-09T12:14:17Z</time>
      </trkpt>
      <trkpt lat="41.415090" lon="2.057219">
        <ele>339.05</ele>
        <time>2016-04-09T12:14:38Z</time>
      </trkpt>
      <trkpt lat="41.415066" lon="2.057319">
        <ele>336.76</ele>
        <time>2016-04-09T12:14:54Z</time>
      </trkpt>
      <trkpt lat="41.415083" lon="2.057298">
        <ele>394.61</ele>
        <time>2022-01-14T14:04:31Z</time>
      </trkpt>
      <trkpt lat="41.415130" lon="2.057330">
        <ele>394.62</ele>
        <time>2022-01-14T14:04:36Z</time>
      </trkpt>
      <trkpt lat="41.415157" lon="2.057385">
        <ele>396.66</ele>
        <time>2022-01-14T14:04:59Z</time>
      </trkpt>
      <trkpt lat="41.415185" lon="2.057438">
        <ele>396.69</ele>
        <time>2022-01-14T14:05:03Z</time>
      </trkpt>
      <trkpt lat="41.415212" lon="2.057490">
        <ele>396.67</ele>
        <time>2022-01-14T14:05:07Z</time>
      </trkpt>
      <trkpt lat="41.415244" lon="2.057547">
        <ele>396.65</ele>
        <time>2022-01-14T14:05:12Z</time>
      </trkpt>
      <trkpt lat="41.415284" lon="2.057595">
        <ele>396.70</ele>
        <time>2022-01-14T14:05:17Z</time>
      </trkpt>
      <trkpt lat="41.415321" lon="2.057647">
        <ele>397.43</ele>
        <time>2022-01-14T14:05:22Z</time>
      </trkpt>
      <trkpt lat="41.415359" lon="2.057694">
        <ele>401.54</ele>
        <time>2022-01-14T14:05:26Z</time>
      </trkpt>
      <trkpt lat="41.415397" lon="2.057736">
        <ele>403.10</ele>
        <time>2022-01-14T14:05:29Z</time>
      </trkpt>
      <trkpt lat="41.415452" lon="2.057778">
        <ele>403.04</ele>
        <time>2022-01-14T14:05:33Z</time>
      </trkpt>
      <trkpt lat="41.415507" lon="2.057773">
        <ele>403.09</ele>
        <time>2022-01-14T14:05:39Z</time>
      </trkpt>
      <trkpt lat="41.415554" lon="2.057751">
        <ele>401.51</ele>
        <time>2022-01-14T14:05:43Z</time>
      </trkpt>
      <trkpt lat="41.415607" lon="2.057748">
        <ele>401.11</ele>
        <time>2022-01-14T14:05:48Z</time>
      </trkpt>
      <trkpt lat="41.415657" lon="2.057758">
        <ele>399.88</ele>
        <time>2022-01-14T14:05:52Z</time>
      </trkpt>
      <trkpt lat="41.415707" lon="2.057765">
        <ele>397.62</ele>
        <time>2022-01-14T14:05:55Z</time>
      </trkpt>
      <trkpt lat="41.415754" lon="2.057763">
        <ele>396.62</ele>
        <time>2022-01-14T14:05:58Z</time>
      </trkpt>
      <trkpt lat="41.415804" lon="2.057785">
        <ele>394.24</ele>
        <time>2022-01-14T14:06:03Z</time>
      </trkpt>
      <trkpt lat="41.415861" lon="2.057838">
        <ele>390.65</ele>
        <time>2022-01-14T14:06:10Z</time>
      </trkpt>
      <trkpt lat="41.415894" lon="2.057880">
        <ele>389.82</ele>
        <time>2022-01-14T14:06:13Z</time>
      </trkpt>
      <trkpt lat="41.415924" lon="2.057945">
        <ele>389.72</ele>
        <time>2022-01-14T14:06:19Z</time>
      </trkpt>
      <trkpt lat="41.415966" lon="2.057973">
        <ele>390.81</ele>
        <time>2022-01-14T14:06:24Z</time>
      </trkpt>
      <trkpt lat="41.416011" lon="2.057978">
        <ele>393.02</ele>
        <time>2022-01-14T14:06:27Z</time>
      </trkpt>
      <trkpt lat="41.416131" lon="2.057963">
        <ele>393.95</ele>
        <time>2022-01-14T14:06:38Z</time>
      </trkpt>
      <trkpt lat="41.416179" lon="2.057958">
        <ele>394.15</ele>
        <time>2022-01-14T14:06:42Z</time>
      </trkpt>
      <trkpt lat="41.416227" lon="2.057955">
        <ele>394.25</ele>
        <time>2022-01-14T14:06:47Z</time>
      </trkpt>
      <trkpt lat="41.416274" lon="2.058013">
        <ele>405.46</ele>
        <time>2022-01-14T14:07:21Z</time>
      </trkpt>
      <trkpt lat="41.416269" lon="2.057999">
        <ele>328.10</ele>
        <time>2022-10-10T06:42:41.07Z</time>
      </trkpt>
      <trkpt lat="41.416142" lon="2.057945">
        <ele>319.90</ele>
        <time>2022-10-10T06:42:41.13Z</time>
      </trkpt>
      <trkpt lat="41.416064" lon="2.057855">
        <ele>319.90</ele>
        <time>2022-10-10T06:42:41.19Z</time>
      </trkpt>
      <trkpt lat="41.416053" lon="2.057741">
        <ele>325.30</ele>
        <time>2022-10-10T06:42:43.01Z</time>
      </trkpt>
      <trkpt lat="41.416008" lon="2.057690">
        <ele>322.90</ele>
        <time>2022-10-10T06:42:44.09Z</time>
      </trkpt>
      <trkpt lat="41.415973" lon="2.057500">
        <ele>320.30</ele>
        <time>2022-10-10T06:42:44.82Z</time>
      </trkpt>
      <trkpt lat="41.415902" lon="2.057313">
        <ele>320.50</ele>
        <time>2022-10-10T06:42:46.65Z</time>
      </trkpt>
      <trkpt lat="41.415940" lon="2.057030">
        <ele>319.91</ele>
        <time>2022-10-10T06:42:47.36Z</time>
      </trkpt>
      <trkpt lat="41.415647" lon="2.056947">
        <ele>319.54</ele>
        <time>2022-10-10T06:42:47.80Z</time>
      </trkpt>
      <trkpt lat="41.415930" lon="2.056981">
        <ele>319.10</ele>
        <time>2022-10-10T06:42:48.32Z</time>
      </trkpt>
      <trkpt lat="41.416094" lon="2.056860">
        <ele>314.40</ele>
        <time>2022-10-10T06:42:49.57Z</time>
      </trkpt>
      <trkpt lat="41.416435" lon="2.057069">
        <ele>305.40</ele>
        <time>2022-10-10T06:42:52.08Z</time>
      </trkpt>
      <trkpt lat="41.416749" lon="2.057340">
        <ele>296.20</ele>
        <time>2022-10-10T06:42:54.57Z</time>
      </trkpt>
      <trkpt lat="41.416795" lon="2.057381">
        <ele>294.60</ele>
        <time>2022-10-10T06:42:54.94Z</time>
      </trkpt>
      <trkpt lat="41.416960" lon="2.057600">
        <ele>307.80</ele>
        <time>2022-10-10T06:42:56.49Z</time>
      </trkpt>
      <trkpt lat="41.417010" lon="2.057550">
        <ele>304.10</ele>
        <time>2022-10-10T06:42:56.91Z</time>
      </trkpt>
      <trkpt lat="41.417050" lon="2.057550">
        <ele>302.20</ele>
        <time>2022-10-10T06:42:57.17Z</time>
      </trkpt>
      <trkpt lat="41.417050" lon="2.057640">
        <ele>304.20</ele>
        <time>2022-10-10T06:42:57.62Z</time>
      </trkpt>
      <trkpt lat="41.417060" lon="2.057660">
        <ele>304.10</ele>
        <time>2022-10-10T06:42:57.74Z</time>
      </trkpt>
      <trkpt lat="41.417130" lon="2.057540">
        <ele>298.10</ele>
        <time>2022-10-10T06:42:58.50Z</time>
      </trkpt>
      <trkpt lat="41.417150" lon="2.057510">
        <ele>296.60</ele>
        <time>2022-10-10T06:42:58.70Z</time>
      </trkpt>
      <trkpt lat="41.417210" lon="2.057620">
        <ele>295.80</ele>
        <time>2022-10-10T06:42:59.38Z</time>
      </trkpt>
      <trkpt lat="41.417240" lon="2.057600">
        <ele>293.70</ele>
        <time>2022-10-10T06:42:59.61Z</time>
      </trkpt>
      <trkpt lat="41.417280" lon="2.057510">
        <ele>289.60</ele>
        <time>2022-10-10T06:43:00.13Z</time>
      </trkpt>
      <trkpt lat="41.417290" lon="2.057390">
        <ele>289.00</ele>
        <time>2022-10-10T06:43:00.73Z</time>
      </trkpt>
      <trkpt lat="41.417320" lon="2.057460">
        <ele>287.10</ele>
        <time>2022-10-10T06:43:01.14Z</time>
      </trkpt>
      <trkpt lat="41.417410" lon="2.057530">
        <ele>282.10</ele>
        <time>2022-10-10T06:43:01.83Z</time>
      </trkpt>
      <trkpt lat="41.417500" lon="2.057640">
        <ele>279.00</ele>
        <time>2022-10-10T06:43:02.65Z</time>
      </trkpt>
      <trkpt lat="41.417570" lon="2.057690">
        <ele>276.60</ele>
        <time>2022-10-10T06:43:03.18Z</time>
      </trkpt>
      <trkpt lat="41.417640" lon="2.057620">
        <ele>271.90</ele>
        <time>2022-10-10T06:43:03.76Z</time>
      </trkpt>
      <trkpt lat="41.417670" lon="2.057690">
        <ele>271.50</ele>
        <time>2022-10-10T06:43:04.16Z</time>
      </trkpt>
      <trkpt lat="41.417700" lon="2.057720">
        <ele>270.40</ele>
        <time>2022-10-10T06:43:04.41Z</time>
      </trkpt>
      <trkpt lat="41.417770" lon="2.057660">
        <ele>266.10</ele>
        <time>2022-10-10T06:43:04.97Z</time>
      </trkpt>
      <trkpt lat="41.417810" lon="2.057530">
        <ele>263.10</ele>
        <time>2022-10-10T06:43:05.67Z</time>
      </trkpt>
      <trkpt lat="41.417860" lon="2.057410">
        <ele>261.40</ele>
        <time>2022-10-10T06:43:06.36Z</time>
      </trkpt>
      <trkpt lat="41.417890" lon="2.057540">
        <ele>260.30</ele>
        <time>2022-10-10T06:43:07.04Z</time>
      </trkpt>
      <trkpt lat="41.417950" lon="2.057690">
        <ele>259.40</ele>
        <time>2022-10-10T06:43:07.89Z</time>
      </trkpt>
      <trkpt lat="41.418040" lon="2.057580">
        <ele>255.10</ele>
        <time>2022-10-10T06:43:08.70Z</time>
      </trkpt>
      <trkpt lat="41.418080" lon="2.057440">
        <ele>253.60</ele>
        <time>2022-10-10T06:43:09.45Z</time>
      </trkpt>
      <trkpt lat="41.418030" lon="2.057300">
        <ele>255.60</ele>
        <time>2022-10-10T06:43:10.22Z</time>
      </trkpt>
      <trkpt lat="41.418130" lon="2.057350">
        <ele>252.90</ele>
        <time>2022-10-10T06:43:10.94Z</time>
      </trkpt>
      <trkpt lat="41.418210" lon="2.057290">
        <ele>251.70</ele>
        <time>2022-10-10T06:43:11.55Z</time>
      </trkpt>
      <trkpt lat="41.418300" lon="2.057410">
        <ele>248.70</ele>
        <time>2022-10-10T06:43:12.40Z</time>
      </trkpt>
      <trkpt lat="41.418310" lon="2.057290">
        <ele>249.70</ele>
        <time>2022-10-10T06:43:13Z</time>
      </trkpt>
      <trkpt lat="41.418494" lon="2.057361">
        <ele>259.60</ele>
        <time>2022-10-10T06:43:14.28Z</time>
      </trkpt>
      <trkpt lat="41.418630" lon="2.057320">
        <ele>247.50</ele>
        <time>2022-10-10T06:43:15.21Z</time>
      </trkpt>
      <trkpt lat="41.419310" lon="2.057150">
        <ele>241.10</ele>
        <time>2022-10-10T06:43:19.82Z</time>
      </trkpt>
      <trkpt lat="41.419520" lon="2.057050">
        <ele>237.10</ele>
        <time>2022-10-10T06:43:21.30Z</time>
      </trkpt>
      <trkpt lat="41.419650" lon="2.057020">
        <ele>233.10</ele>
        <time>2022-10-10T06:43:22.18Z</time>
      </trkpt>
      <trkpt lat="41.419710" lon="2.057050">
        <ele>231.40</ele>
        <time>2022-10-10T06:43:22.61Z</time>
      </trkpt>
      <trkpt lat="41.419800" lon="2.057180">
        <ele>229.30</ele>
        <time>2022-10-10T06:43:23.50Z</time>
      </trkpt>
      <trkpt lat="41.419850" lon="2.057200">
        <ele>228.20</ele>
        <time>2022-10-10T06:43:23.84Z</time>
      </trkpt>
      <trkpt lat="41.419890" lon="2.057250">
        <ele>227.70</ele>
        <time>2022-10-10T06:43:24.21Z</time>
      </trkpt>
      <trkpt lat="41.419930" lon="2.057410">
        <ele>228.50</ele>
        <time>2022-10-10T06:43:25.05Z</time>
      </trkpt>
      <trkpt lat="41.419960" lon="2.057640">
        <ele>230.80</ele>
        <time>2022-10-10T06:43:26.22Z</time>
      </trkpt>
      <trkpt lat="41.419980" lon="2.057770">
        <ele>232.30</ele>
        <time>2022-10-10T06:43:26.88Z</time>
      </trkpt>
      <trkpt lat="41.420040" lon="2.057840">
        <ele>233.50</ele>
        <time>2022-10-10T06:43:27.41Z</time>
      </trkpt>
      <trkpt lat="41.420080" lon="2.057850">
        <ele>233.80</ele>
        <time>2022-10-10T06:43:27.69Z</time>
      </trkpt>
      <trkpt lat="41.420210" lon="2.057860">
        <ele>234.30</ele>
        <time>2022-10-10T06:43:28.55Z</time>
      </trkpt>
      <trkpt lat="41.420330" lon="2.057920">
        <ele>236.00</ele>
        <time>2022-10-10T06:43:29.41Z</time>
      </trkpt>
      <trkpt lat="41.420480" lon="2.058050">
        <ele>238.70</ele>
        <time>2022-10-10T06:43:30.60Z</time>
      </trkpt>
      <trkpt lat="41.420560" lon="2.058030">
        <ele>238.80</ele>
        <time>2022-10-10T06:43:31.14Z</time>
      </trkpt>
      <trkpt lat="41.420610" lon="2.057950">
        <ele>238.00</ele>
        <time>2022-10-10T06:43:31.66Z</time>
      </trkpt>
      <trkpt lat="41.420640" lon="2.057780">
        <ele>236.10</ele>
        <time>2022-10-10T06:43:32.54Z</time>
      </trkpt>
      <trkpt lat="41.420650" lon="2.057710">
        <ele>234.80</ele>
        <time>2022-10-10T06:43:32.89Z</time>
      </trkpt>
      <trkpt lat="41.420650" lon="2.057710">
        <ele>234.80</ele>
        <time>2022-10-10T06:43:32.95Z</time>
      </trkpt>
      <trkpt lat="41.420650" lon="2.057710">
        <ele>234.80</ele>
        <time>2022-10-10T06:43:33.01Z</time>
      </trkpt>
      <trkpt lat="41.420670" lon="2.057460">
        <ele>229.80</ele>
        <time>2022-10-10T06:43:34.27Z</time>
      </trkpt>
      <trkpt lat="41.420670" lon="2.057280">
        <ele>225.40</ele>
        <time>2022-10-10T06:43:35.17Z</time>
      </trkpt>
      <trkpt lat="41.420680" lon="2.057170">
        <ele>223.20</ele>
        <time>2022-10-10T06:43:35.72Z</time>
      </trkpt>
      <trkpt lat="41.420820" lon="2.057240">
        <ele>224.30</ele>
        <time>2022-10-10T06:43:36.72Z</time>
      </trkpt>
      <trkpt lat="41.420890" lon="2.057310">
        <ele>225.30</ele>
        <time>2022-10-10T06:43:37.30Z</time>
      </trkpt>
      <trkpt lat="41.420920" lon="2.057360">
        <ele>226.20</ele>
        <time>2022-10-10T06:43:37.62Z</time>
      </trkpt>
      <trkpt lat="41.421000" lon="2.057450">
        <ele>227.90</ele>
        <time>2022-10-10T06:43:38.32Z</time>
      </trkpt>
      <trkpt lat="41.421030" lon="2.057480">
        <ele>228.50</ele>
        <time>2022-10-10T06:43:38.57Z</time>
      </trkpt>
      <trkpt lat="41.421120" lon="2.057550">
        <ele>230.20</ele>
        <time>2022-10-10T06:43:39.27Z</time>
      </trkpt>
      <trkpt lat="41.421170" lon="2.057660">
        <ele>232.40</ele>
        <time>2022-10-10T06:43:39.91Z</time>
      </trkpt>
      <trkpt lat="41.421210" lon="2.057730">
        <ele>233.50</ele>
        <time>2022-10-10T06:43:40.35Z</time>
      </trkpt>
      <trkpt lat="41.421280" lon="2.057840">
        <ele>235.50</ele>
        <time>2022-10-10T06:43:41.07Z</time>
      </trkpt>
      <trkpt lat="41.421390" lon="2.058000">
        <ele>239.20</ele>
        <time>2022-10-10T06:43:42.16Z</time>
      </trkpt>
      <trkpt lat="41.421510" lon="2.058130">
        <ele>244.30</ele>
        <time>2022-10-10T06:43:43.19Z</time>
      </trkpt>
      <trkpt lat="41.421600" lon="2.058140">
        <ele>245.30</ele>
        <time>2022-10-10T06:43:43.79Z</time>
      </trkpt>
      <trkpt lat="41.421730" lon="2.058120">
        <ele>243.80</ele>
        <time>2022-10-10T06:43:44.66Z</time>
      </trkpt>
      <trkpt lat="41.421780" lon="2.058100">
        <ele>242.30</ele>
        <time>2022-10-10T06:43:45.01Z</time>
      </trkpt>
      <trkpt lat="41.421830" lon="2.058090">
        <ele>241.00</ele>
        <time>2022-10-10T06:43:45.35Z</time>
      </trkpt>
      <trkpt lat="41.421860" lon="2.058160">
        <ele>242.40</ele>
        <time>2022-10-10T06:43:45.75Z</time>
      </trkpt>
      <trkpt lat="41.421830" lon="2.058250">
        <ele>245.50</ele>
        <time>2022-10-10T06:43:46.24Z</time>
      </trkpt>
      <trkpt lat="41.421760" lon="2.058300">
        <ele>248.60</ele>
        <time>2022-10-10T06:43:46.77Z</time>
      </trkpt>
      <trkpt lat="41.421690" lon="2.058350">
        <ele>251.90</ele>
        <time>2022-10-10T06:43:47.30Z</time>
      </trkpt>
      <trkpt lat="41.421570" lon="2.058380">
        <ele>252.60</ele>
        <time>2022-10-10T06:43:48.11Z</time>
      </trkpt>
      <trkpt lat="41.421440" lon="2.058410">
        <ele>252.60</ele>
        <time>2022-10-10T06:43:48.99Z</time>
      </trkpt>
      <trkpt lat="41.421310" lon="2.058440">
        <ele>252.70</ele>
        <time>2022-10-10T06:43:49.87Z</time>
      </trkpt>
      <trkpt lat="41.421170" lon="2.058450">
        <ele>252.40</ele>
        <time>2022-10-10T06:43:50.81Z</time>
      </trkpt>
      <trkpt lat="41.420990" lon="2.058530">
        <ele>252.10</ele>
        <time>2022-10-10T06:43:52.07Z</time>
      </trkpt>
      <trkpt lat="41.420950" lon="2.058660">
        <ele>254.40</ele>
        <time>2022-10-10T06:43:52.78Z</time>
      </trkpt>
      <trkpt lat="41.420890" lon="2.058770">
        <ele>255.80</ele>
        <time>2022-10-10T06:43:53.46Z</time>
      </trkpt>
      <trkpt lat="41.420910" lon="2.058920">
        <ele>259.90</ele>
        <time>2022-10-10T06:43:54.22Z</time>
      </trkpt>
      <trkpt lat="41.420970" lon="2.059300">
        <ele>276.50</ele>
        <time>2022-10-10T06:43:56.16Z</time>
      </trkpt>
      <trkpt lat="41.420970" lon="2.059300">
        <ele>276.50</ele>
        <time>2022-10-10T06:43:56.22Z</time>
      </trkpt>
      <trkpt lat="41.420950" lon="2.059370">
        <ele>278.70</ele>
        <time>2022-10-10T06:43:56.59Z</time>
      </trkpt>
      <trkpt lat="41.420920" lon="2.059420">
        <ele>279.90</ele>
        <time>2022-10-10T06:43:56.91Z</time>
      </trkpt>
      <trkpt lat="41.420880" lon="2.059440">
        <ele>279.80</ele>
        <time>2022-10-10T06:43:57.20Z</time>
      </trkpt>
      <trkpt lat="41.420810" lon="2.059440">
        <ele>278.30</ele>
        <time>2022-10-10T06:43:57.66Z</time>
      </trkpt>
      <trkpt lat="41.420740" lon="2.059480">
        <ele>278.20</ele>
        <time>2022-10-10T06:43:58.17Z</time>
      </trkpt>
      <trkpt lat="41.420740" lon="2.059530">
        <ele>280.00</ele>
        <time>2022-10-10T06:43:58.42Z</time>
      </trkpt>
      <trkpt lat="41.420740" lon="2.059580">
        <ele>281.70</ele>
        <time>2022-10-10T06:43:58.67Z</time>
      </trkpt>
      <trkpt lat="41.420810" lon="2.059610">
        <ele>284.40</ele>
        <time>2022-10-10T06:43:59.16Z</time>
      </trkpt>
      <trkpt lat="41.420920" lon="2.059600">
        <ele>286.30</ele>
        <time>2022-10-10T06:43:59.90Z</time>
      </trkpt>
      <trkpt lat="41.421000" lon="2.059550">
        <ele>286.20</ele>
        <time>2022-10-10T06:44:00.49Z</time>
      </trkpt>
      <trkpt lat="41.421170" lon="2.059350">
        <ele>282.20</ele>
        <time>2022-10-10T06:44:02Z</time>
      </trkpt>
      <trkpt lat="41.421310" lon="2.059220">
        <ele>279.50</ele>
        <time>2022-10-10T06:44:03.14Z</time>
      </trkpt>
      <trkpt lat="41.421360" lon="2.059220">
        <ele>280.20</ele>
        <time>2022-10-10T06:44:03.47Z</time>
      </trkpt>
      <trkpt lat="41.421420" lon="2.059220">
        <ele>280.40</ele>
        <time>2022-10-10T06:44:03.87Z</time>
      </trkpt>
      <trkpt lat="41.421480" lon="2.059260">
        <ele>281.10</ele>
        <time>2022-10-10T06:44:04.32Z</time>
      </trkpt>
      <trkpt lat="41.421550" lon="2.059320">
        <ele>282.20</ele>
        <time>2022-10-10T06:44:04.87Z</time>
      </trkpt>
      <trkpt lat="41.421610" lon="2.059400">
        <ele>283.60</ele>
        <time>2022-10-10T06:44:05.44Z</time>
      </trkpt>
      <trkpt lat="41.421650" lon="2.059450">
        <ele>284.30</ele>
        <time>2022-10-10T06:44:05.80Z</time>
      </trkpt>
      <trkpt lat="41.421670" lon="2.059500">
        <ele>284.50</ele>
        <time>2022-10-10T06:44:06.09Z</time>
      </trkpt>
      <trkpt lat="41.421690" lon="2.059550">
        <ele>284.60</ele>
        <time>2022-10-10T06:44:06.37Z</time>
      </trkpt>
      <trkpt lat="41.421720" lon="2.059590">
        <ele>284.50</ele>
        <time>2022-10-10T06:44:06.65Z</time>
      </trkpt>
      <trkpt lat="41.421750" lon="2.059640">
        <ele>284.80</ele>
        <time>2022-10-10T06:44:06.97Z</time>
      </trkpt>
      <trkpt lat="41.421760" lon="2.059720">
        <ele>286.00</ele>
        <time>2022-10-10T06:44:07.38Z</time>
      </trkpt>
      <trkpt lat="41.421760" lon="2.060030">
        <ele>291.10</ele>
        <time>2022-10-10T06:44:08.93Z</time>
      </trkpt>
      <trkpt lat="41.421760" lon="2.060150">
        <ele>294.50</ele>
        <time>2022-10-10T06:44:09.53Z</time>
      </trkpt>
      <trkpt lat="41.421790" lon="2.060270">
        <ele>297.10</ele>
        <time>2022-10-10T06:44:10.16Z</time>
      </trkpt>
      <trkpt lat="41.421880" lon="2.060510">
        <ele>301.00</ele>
        <time>2022-10-10T06:44:11.50Z</time>
      </trkpt>
      <trkpt lat="41.421890" lon="2.060630">
        <ele>303.70</ele>
        <time>2022-10-10T06:44:12.10Z</time>
      </trkpt>
      <trkpt lat="41.421950" lon="2.060750">
        <ele>304.90</ele>
        <time>2022-10-10T06:44:12.82Z</time>
      </trkpt>
      <trkpt lat="41.421990" lon="2.060790">
        <ele>305.90</ele>
        <time>2022-10-10T06:44:13.16Z</time>
      </trkpt>
      <trkpt lat="41.422060" lon="2.060780">
        <ele>305.60</ele>
        <time>2022-10-10T06:44:13.63Z</time>
      </trkpt>
      <trkpt lat="41.422160" lon="2.060730">
        <ele>304.10</ele>
        <time>2022-10-10T06:44:14.34Z</time>
      </trkpt>
      <trkpt lat="41.422330" lon="2.060650">
        <ele>302.10</ele>
        <time>2022-10-10T06:44:15.54Z</time>
      </trkpt>
      <trkpt lat="41.422380" lon="2.060670">
        <ele>302.90</ele>
        <time>2022-10-10T06:44:15.89Z</time>
      </trkpt>
      <trkpt lat="41.422430" lon="2.060720">
        <ele>304.50</ele>
        <time>2022-10-10T06:44:16.31Z</time>
      </trkpt>
      <trkpt lat="41.422550" lon="2.060780">
        <ele>307.20</ele>
        <time>2022-10-10T06:44:17.16Z</time>
      </trkpt>
      <trkpt lat="41.422650" lon="2.060850">
        <ele>311.20</ele>
        <time>2022-10-10T06:44:17.91Z</time>
      </trkpt>
      <trkpt lat="41.422720" lon="2.060890">
        <ele>313.80</ele>
        <time>2022-10-10T06:44:18.42Z</time>
      </trkpt>
      <trkpt lat="41.422770" lon="2.060920">
        <ele>315.70</ele>
        <time>2022-10-10T06:44:18.79Z</time>
      </trkpt>
      <trkpt lat="41.422810" lon="2.060960">
        <ele>317.20</ele>
        <time>2022-10-10T06:44:19.12Z</time>
      </trkpt>
      <trkpt lat="41.422880" lon="2.061020">
        <ele>318.90</ele>
        <time>2022-10-10T06:44:19.67Z</time>
      </trkpt>
      <trkpt lat="41.423020" lon="2.061100">
        <ele>320.10</ele>
        <time>2022-10-10T06:44:20.69Z</time>
      </trkpt>
      <trkpt lat="41.423080" lon="2.061120">
        <ele>320.40</ele>
        <time>2022-10-10T06:44:21.10Z</time>
      </trkpt>
      <trkpt lat="41.423130" lon="2.061130">
        <ele>321.10</ele>
        <time>2022-10-10T06:44:21.44Z</time>
      </trkpt>
      <trkpt lat="41.423160" lon="2.061120">
        <ele>321.30</ele>
        <time>2022-10-10T06:44:21.65Z</time>
      </trkpt>
      <trkpt lat="41.423160" lon="2.061120">
        <ele>321.30</ele>
        <time>2022-10-10T06:44:21.71Z</time>
      </trkpt>
      <trkpt lat="41.423160" lon="2.061120">
        <ele>321.30</ele>
        <time>2022-10-10T06:44:21.77Z</time>
      </trkpt>
      <trkpt lat="41.423160" lon="2.061120">
        <ele>321.30</ele>
        <time>2022-10-10T06:44:21.83Z</time>
      </trkpt>
      <trkpt lat="41.423190" lon="2.061120">
        <ele>321.60</ele>
        <time>2022-10-10T06:44:22.03Z</time>
      </trkpt>
      <trkpt lat="41.423210" lon="2.061120">
        <ele>321.80</ele>
        <time>2022-10-10T06:44:22.16Z</time>
      </trkpt>
      <trkpt lat="41.423230" lon="2.061150">
        <ele>322.30</ele>
        <time>2022-10-10T06:44:22.36Z</time>
      </trkpt>
      <trkpt lat="41.423240" lon="2.061180">
        <ele>322.70</ele>
        <time>2022-10-10T06:44:22.52Z</time>
      </trkpt>
      <trkpt lat="41.423250" lon="2.061250">
        <ele>323.50</ele>
        <time>2022-10-10T06:44:22.88Z</time>
      </trkpt>
      <trkpt lat="41.423240" lon="2.061320">
        <ele>324.30</ele>
        <time>2022-10-10T06:44:23.24Z</time>
      </trkpt>
      <trkpt lat="41.423150" lon="2.061390">
        <ele>325.00</ele>
        <time>2022-10-10T06:44:23.93Z</time>
      </trkpt>
      <trkpt lat="41.423130" lon="2.061440">
        <ele>325.00</ele>
        <time>2022-10-10T06:44:24.21Z</time>
      </trkpt>
      <trkpt lat="41.423110" lon="2.061480">
        <ele>324.90</ele>
        <time>2022-10-10T06:44:24.45Z</time>
      </trkpt>
      <trkpt lat="41.423090" lon="2.061500">
        <ele>325.00</ele>
        <time>2022-10-10T06:44:24.62Z</time>
      </trkpt>
      <trkpt lat="41.423050" lon="2.061550">
        <ele>325.10</ele>
        <time>2022-10-10T06:44:24.99Z</time>
      </trkpt>
      <trkpt lat="41.423020" lon="2.061600">
        <ele>325.50</ele>
        <time>2022-10-10T06:44:25.31Z</time>
      </trkpt>
      <trkpt lat="41.423010" lon="2.061610">
        <ele>325.70</ele>
        <time>2022-10-10T06:44:25.39Z</time>
      </trkpt>
      <trkpt lat="41.423000" lon="2.061620">
        <ele>325.90</ele>
        <time>2022-10-10T06:44:25.47Z</time>
      </trkpt>
      <trkpt lat="41.422960" lon="2.061640">
        <ele>326.60</ele>
        <time>2022-10-10T06:44:25.76Z</time>
      </trkpt>
      <trkpt lat="41.422920" lon="2.061650">
        <ele>327.40</ele>
        <time>2022-10-10T06:44:26.03Z</time>
      </trkpt>
      <trkpt lat="41.422890" lon="2.061670">
        <ele>328.00</ele>
        <time>2022-10-10T06:44:26.25Z</time>
      </trkpt>
      <trkpt lat="41.422830" lon="2.061700">
        <ele>328.90</ele>
        <time>2022-10-10T06:44:26.68Z</time>
      </trkpt>
      <trkpt lat="41.422760" lon="2.061750">
        <ele>329.80</ele>
        <time>2022-10-10T06:44:27.21Z</time>
      </trkpt>
      <trkpt lat="41.422680" lon="2.061810">
        <ele>330.00</ele>
        <time>2022-10-10T06:44:27.82Z</time>
      </trkpt>
      <trkpt lat="41.422640" lon="2.061830">
        <ele>330.20</ele>
        <time>2022-10-10T06:44:28.11Z</time>
      </trkpt>
      <trkpt lat="41.422600" lon="2.061860">
        <ele>330.40</ele>
        <time>2022-10-10T06:44:28.41Z</time>
      </trkpt>
      <trkpt lat="41.422560" lon="2.061940">
        <ele>330.60</ele>
        <time>2022-10-10T06:44:28.89Z</time>
      </trkpt>
      <trkpt lat="41.422640" lon="2.061960">
        <ele>329.70</ele>
        <time>2022-10-10T06:44:29.44Z</time>
      </trkpt>
      <trkpt lat="41.422690" lon="2.062070">
        <ele>327.70</ele>
        <time>2022-10-10T06:44:30.08Z</time>
      </trkpt>
      <trkpt lat="41.422730" lon="2.062230">
        <ele>325.00</ele>
        <time>2022-10-10T06:44:30.92Z</time>
      </trkpt>
      <trkpt lat="41.422770" lon="2.062330">
        <ele>322.70</ele>
        <time>2022-10-10T06:44:31.49Z</time>
      </trkpt>
      <trkpt lat="41.422860" lon="2.062510">
        <ele>316.30</ele>
        <time>2022-10-10T06:44:32.57Z</time>
      </trkpt>
      <trkpt lat="41.422940" lon="2.062660">
        <ele>308.90</ele>
        <time>2022-10-10T06:44:33.49Z</time>
      </trkpt>
      <trkpt lat="41.423020" lon="2.062750">
        <ele>303.80</ele>
        <time>2022-10-10T06:44:34.19Z</time>
      </trkpt>
      <trkpt lat="41.423180" lon="2.062760">
        <ele>300.70</ele>
        <time>2022-10-10T06:44:35.26Z</time>
      </trkpt>
      <trkpt lat="41.423310" lon="2.062710">
        <ele>300.10</ele>
        <time>2022-10-10T06:44:36.16Z</time>
      </trkpt>
      <trkpt lat="41.423400" lon="2.062610">
        <ele>303.20</ele>
        <time>2022-10-10T06:44:36.94Z</time>
      </trkpt>
      <trkpt lat="41.423560" lon="2.062640">
        <ele>304.70</ele>
        <time>2022-10-10T06:44:38.02Z</time>
      </trkpt>
      <trkpt lat="41.423730" lon="2.062740">
        <ele>304.60</ele>
        <time>2022-10-10T06:44:39.25Z</time>
      </trkpt>
      <trkpt lat="41.423900" lon="2.062740">
        <ele>306.90</ele>
        <time>2022-10-10T06:44:40.39Z</time>
      </trkpt>
      <trkpt lat="41.424010" lon="2.062810">
        <ele>305.90</ele>
        <time>2022-10-10T06:44:41.20Z</time>
      </trkpt>
      <trkpt lat="41.424250" lon="2.062990">
        <ele>300.50</ele>
        <time>2022-10-10T06:44:43.04Z</time>
      </trkpt>
      <trkpt lat="41.424310" lon="2.063020">
        <ele>299.00</ele>
        <time>2022-10-10T06:44:43.46Z</time>
      </trkpt>
      <trkpt lat="41.424480" lon="2.063060">
        <ele>296.60</ele>
        <time>2022-10-10T06:44:44.61Z</time>
      </trkpt>
      <trkpt lat="41.424870" lon="2.063060">
        <ele>291.20</ele>
        <time>2022-10-10T06:44:47.21Z</time>
      </trkpt>
      <trkpt lat="41.425160" lon="2.063200">
        <ele>284.60</ele>
        <time>2022-10-10T06:44:49.27Z</time>
      </trkpt>
      <trkpt lat="41.425330" lon="2.063240">
        <ele>283.90</ele>
        <time>2022-10-10T06:44:50.42Z</time>
      </trkpt>
      <trkpt lat="41.425430" lon="2.063210">
        <ele>286.10</ele>
        <time>2022-10-10T06:44:51.10Z</time>
      </trkpt>
      <trkpt lat="41.425490" lon="2.063190">
        <ele>287.50</ele>
        <time>2022-10-10T06:44:51.52Z</time>
      </trkpt>
      <trkpt lat="41.425640" lon="2.063100">
        <ele>290.40</ele>
        <time>2022-10-10T06:44:52.61Z</time>
      </trkpt>
      <trkpt lat="41.425910" lon="2.062780">
        <ele>299.10</ele>
        <time>2022-10-10T06:44:55.02Z</time>
      </trkpt>
      <trkpt lat="41.426070" lon="2.062620">
        <ele>301.50</ele>
        <time>2022-10-10T06:44:56.35Z</time>
      </trkpt>
      <trkpt lat="41.426220" lon="2.062600">
        <ele>297.10</ele>
        <time>2022-10-10T06:44:57.36Z</time>
      </trkpt>
      <trkpt lat="41.426330" lon="2.062520">
        <ele>295.50</ele>
        <time>2022-10-10T06:44:58.19Z</time>
      </trkpt>
      <trkpt lat="41.426590" lon="2.062330">
        <ele>290.10</ele>
        <time>2022-10-10T06:45:00.17Z</time>
      </trkpt>
      <trkpt lat="41.426590" lon="2.062330">
        <ele>290.10</ele>
        <time>2022-10-10T06:45:00.23Z</time>
      </trkpt>
      <trkpt lat="41.426590" lon="2.062330">
        <ele>290.10</ele>
        <time>2022-10-10T06:45:00.29Z</time>
      </trkpt>
      <trkpt lat="41.426670" lon="2.062270">
        <ele>289.40</ele>
        <time>2022-10-10T06:45:00.90Z</time>
      </trkpt>
      <trkpt lat="41.426780" lon="2.062100">
        <ele>291.10</ele>
        <time>2022-10-10T06:45:02.03Z</time>
      </trkpt>
      <trkpt lat="41.426870" lon="2.061990">
        <ele>292.00</ele>
        <time>2022-10-10T06:45:02.84Z</time>
      </trkpt>
      <trkpt lat="41.426910" lon="2.061920">
        <ele>293.20</ele>
        <time>2022-10-10T06:45:03.28Z</time>
      </trkpt>
      <trkpt lat="41.426980" lon="2.061890">
        <ele>293.70</ele>
        <time>2022-10-10T06:45:03.77Z</time>
      </trkpt>
      <trkpt lat="41.427020" lon="2.061810">
        <ele>296.10</ele>
        <time>2022-10-10T06:45:04.25Z</time>
      </trkpt>
      <trkpt lat="41.427150" lon="2.061790">
        <ele>297.20</ele>
        <time>2022-10-10T06:45:05.12Z</time>
      </trkpt>
      <trkpt lat="41.427280" lon="2.061890">
        <ele>294.90</ele>
        <time>2022-10-10T06:45:06.12Z</time>
      </trkpt>
      <trkpt lat="41.427410" lon="2.062040">
        <ele>292.60</ele>
        <time>2022-10-10T06:45:07.27Z</time>
      </trkpt>
      <trkpt lat="41.427430" lon="2.062060">
        <ele>292.40</ele>
        <time>2022-10-10T06:45:07.44Z</time>
      </trkpt>
      <trkpt lat="41.427460" lon="2.062080">
        <ele>292.30</ele>
        <time>2022-10-10T06:45:07.66Z</time>
      </trkpt>
      <trkpt lat="41.427490" lon="2.062080">
        <ele>292.50</ele>
        <time>2022-10-10T06:45:07.86Z</time>
      </trkpt>
      <trkpt lat="41.427530" lon="2.062020">
        <ele>293.10</ele>
        <time>2022-10-10T06:45:08.26Z</time>
      </trkpt>
      <trkpt lat="41.427560" lon="2.061960">
        <ele>293.60</ele>
        <time>2022-10-10T06:45:08.62Z</time>
      </trkpt>
      <trkpt lat="41.427600" lon="2.061890">
        <ele>294.30</ele>
        <time>2022-10-10T06:45:09.06Z</time>
      </trkpt>
      <trkpt lat="41.427660" lon="2.061810">
        <ele>295.10</ele>
        <time>2022-10-10T06:45:09.63Z</time>
      </trkpt>
      <trkpt lat="41.427700" lon="2.061780">
        <ele>295.20</ele>
        <time>2022-10-10T06:45:09.93Z</time>
      </trkpt>
      <trkpt lat="41.427780" lon="2.061700">
        <ele>296.10</ele>
        <time>2022-10-10T06:45:10.60Z</time>
      </trkpt>
      <trkpt lat="41.427910" lon="2.061590">
        <ele>297.20</ele>
        <time>2022-10-10T06:45:11.63Z</time>
      </trkpt>
      <trkpt lat="41.427970" lon="2.061560">
        <ele>297.10</ele>
        <time>2022-10-10T06:45:12.05Z</time>
      </trkpt>
      <trkpt lat="41.428020" lon="2.061560">
        <ele>296.40</ele>
        <time>2022-10-10T06:45:12.39Z</time>
      </trkpt>
      <trkpt lat="41.428060" lon="2.061610">
        <ele>295.00</ele>
        <time>2022-10-10T06:45:12.75Z</time>
      </trkpt>
      <trkpt lat="41.428090" lon="2.061630">
        <ele>294.60</ele>
        <time>2022-10-10T06:45:12.97Z</time>
      </trkpt>
      <trkpt lat="41.428130" lon="2.061600">
        <ele>294.80</ele>
        <time>2022-10-10T06:45:13.28Z</time>
      </trkpt>
      <trkpt lat="41.428160" lon="2.061560">
        <ele>295.00</ele>
        <time>2022-10-10T06:45:13.56Z</time>
      </trkpt>
      <trkpt lat="41.428250" lon="2.061500">
        <ele>294.50</ele>
        <time>2022-10-10T06:45:14.23Z</time>
      </trkpt>
      <trkpt lat="41.428360" lon="2.061470">
        <ele>293.10</ele>
        <time>2022-10-10T06:45:14.98Z</time>
      </trkpt>
      <trkpt lat="41.428550" lon="2.061530">
        <ele>291.90</ele>
        <time>2022-10-10T06:45:16.28Z</time>
      </trkpt>
      <trkpt lat="41.428680" lon="2.061560">
        <ele>289.50</ele>
        <time>2022-10-10T06:45:17.16Z</time>
      </trkpt>
      <trkpt lat="41.428720" lon="2.061560">
        <ele>288.40</ele>
        <time>2022-10-10T06:45:17.43Z</time>
      </trkpt>
      <trkpt lat="41.428750" lon="2.061550">
        <ele>287.60</ele>
        <time>2022-10-10T06:45:17.64Z</time>
      </trkpt>
      <trkpt lat="41.428780" lon="2.061530">
        <ele>286.90</ele>
        <time>2022-10-10T06:45:17.86Z</time>
      </trkpt>
      <trkpt lat="41.428810" lon="2.061500">
        <ele>286.30</ele>
        <time>2022-10-10T06:45:18.11Z</time>
      </trkpt>
      <trkpt lat="41.428850" lon="2.061440">
        <ele>285.60</ele>
        <time>2022-10-10T06:45:18.51Z</time>
      </trkpt>
      <trkpt lat="41.428870" lon="2.061380">
        <ele>285.60</ele>
        <time>2022-10-10T06:45:18.84Z</time>
      </trkpt>
      <trkpt lat="41.428890" lon="2.061330">
        <ele>285.60</ele>
        <time>2022-10-10T06:45:19.12Z</time>
      </trkpt>
      <trkpt lat="41.428920" lon="2.061270">
        <ele>285.70</ele>
        <time>2022-10-10T06:45:19.48Z</time>
      </trkpt>
      <trkpt lat="41.428960" lon="2.061270">
        <ele>284.90</ele>
        <time>2022-10-10T06:45:19.75Z</time>
      </trkpt>
      <trkpt lat="41.429026" lon="2.061257">
        <ele>288.90</ele>
        <time>2022-10-10T06:45:20.20Z</time>
      </trkpt>
      <trkpt lat="41.429040" lon="2.061200">
        <ele>283.80</ele>
        <time>2022-10-10T06:45:20.49Z</time>
      </trkpt>
      <trkpt lat="41.429050" lon="2.061190">
        <ele>283.60</ele>
        <time>2022-10-10T06:45:20.58Z</time>
      </trkpt>
      <trkpt lat="41.429034" lon="2.061159">
        <ele>288.00</ele>
        <time>2022-10-10T06:45:20.77Z</time>
      </trkpt>
      <trkpt lat="41.429112" lon="2.061149">
        <ele>286.60</ele>
        <time>2022-10-10T06:45:21.29Z</time>
      </trkpt>
      <trkpt lat="41.429140" lon="2.061160">
        <ele>281.60</ele>
        <time>2022-10-10T06:45:21.48Z</time>
      </trkpt>
      <trkpt lat="41.429120" lon="2.061120">
        <ele>282.20</ele>
        <time>2022-10-10T06:45:21.72Z</time>
      </trkpt>
      <trkpt lat="41.429110" lon="2.061070">
        <ele>282.20</ele>
        <time>2022-10-10T06:45:21.98Z</time>
      </trkpt>
      <trkpt lat="41.429090" lon="2.060960">
        <ele>282.30</ele>
        <time>2022-10-10T06:45:22.55Z</time>
      </trkpt>
      <trkpt lat="41.429070" lon="2.060820">
        <ele>282.40</ele>
        <time>2022-10-10T06:45:23.26Z</time>
      </trkpt>
      <trkpt lat="41.429030" lon="2.060730">
        <ele>283.40</ele>
        <time>2022-10-10T06:45:23.78Z</time>
      </trkpt>
      <trkpt lat="41.429000" lon="2.060580">
        <ele>284.10</ele>
        <time>2022-10-10T06:45:24.56Z</time>
      </trkpt>
      <trkpt lat="41.429010" lon="2.060450">
        <ele>283.50</ele>
        <time>2022-10-10T06:45:25.21Z</time>
      </trkpt>
      <trkpt lat="41.429040" lon="2.060170">
        <ele>282.00</ele>
        <time>2022-10-10T06:45:26.63Z</time>
      </trkpt>
      <trkpt lat="41.429050" lon="2.060100">
        <ele>281.60</ele>
        <time>2022-10-10T06:45:26.98Z</time>
      </trkpt>
      <trkpt lat="41.429060" lon="2.059930">
        <ele>281.40</ele>
        <time>2022-10-10T06:45:27.83Z</time>
      </trkpt>
      <trkpt lat="41.429030" lon="2.059700">
        <ele>284.00</ele>
        <time>2022-10-10T06:45:29Z</time>
      </trkpt>
      <trkpt lat="41.429020" lon="2.059550">
        <ele>285.60</ele>
        <time>2022-10-10T06:45:29.75Z</time>
      </trkpt>
      <trkpt lat="41.429050" lon="2.059450">
        <ele>285.10</ele>
        <time>2022-10-10T06:45:30.29Z</time>
      </trkpt>
      <trkpt lat="41.429180" lon="2.059460">
        <ele>280.30</ele>
        <time>2022-10-10T06:45:31.16Z</time>
      </trkpt>
      <trkpt lat="41.429280" lon="2.059480">
        <ele>276.60</ele>
        <time>2022-10-10T06:45:31.84Z</time>
      </trkpt>
      <trkpt lat="41.429410" lon="2.059490">
        <ele>272.10</ele>
        <time>2022-10-10T06:45:32.70Z</time>
      </trkpt>
      <trkpt lat="41.429520" lon="2.059410">
        <ele>269.50</ele>
        <time>2022-10-10T06:45:33.54Z</time>
      </trkpt>
      <trkpt lat="41.429590" lon="2.059300">
        <ele>268.80</ele>
        <time>2022-10-10T06:45:34.26Z</time>
      </trkpt>
      <trkpt lat="41.429580" lon="2.059210">
        <ele>271.60</ele>
        <time>2022-10-10T06:45:34.71Z</time>
      </trkpt>
      <trkpt lat="41.429600" lon="2.059120">
        <ele>271.80</ele>
        <time>2022-10-10T06:45:35.18Z</time>
      </trkpt>
      <trkpt lat="41.429710" lon="2.058980">
        <ele>266.70</ele>
        <time>2022-10-10T06:45:36.20Z</time>
      </trkpt>
      <trkpt lat="41.429810" lon="2.058930">
        <ele>264.50</ele>
        <time>2022-10-10T06:45:36.91Z</time>
      </trkpt>
      <trkpt lat="41.429880" lon="2.058880">
        <ele>263.60</ele>
        <time>2022-10-10T06:45:37.44Z</time>
      </trkpt>
      <trkpt lat="41.430000" lon="2.058830">
        <ele>261.40</ele>
        <time>2022-10-10T06:45:38.28Z</time>
      </trkpt>
      <trkpt lat="41.430190" lon="2.058750">
        <ele>255.80</ele>
        <time>2022-10-10T06:45:39.61Z</time>
      </trkpt>
      <trkpt lat="41.430190" lon="2.058750">
        <ele>255.80</ele>
        <time>2022-10-10T06:45:39.67Z</time>
      </trkpt>
      <trkpt lat="41.430190" lon="2.058750">
        <ele>255.80</ele>
        <time>2022-10-10T06:45:39.73Z</time>
      </trkpt>
      <trkpt lat="41.430220" lon="2.058740">
        <ele>255.00</ele>
        <time>2022-10-10T06:45:39.93Z</time>
      </trkpt>
      <trkpt lat="41.430320" lon="2.058670">
        <ele>252.40</ele>
        <time>2022-10-10T06:45:40.68Z</time>
      </trkpt>
      <trkpt lat="41.430390" lon="2.058610">
        <ele>250.60</ele>
        <time>2022-10-10T06:45:41.24Z</time>
      </trkpt>
      <trkpt lat="41.430440" lon="2.058550">
        <ele>249.50</ele>
        <time>2022-10-10T06:45:41.69Z</time>
      </trkpt>
      <trkpt lat="41.430470" lon="2.058520">
        <ele>248.80</ele>
        <time>2022-10-10T06:45:41.94Z</time>
      </trkpt>
      <trkpt lat="41.430460" lon="2.058430">
        <ele>250.60</ele>
        <time>2022-10-10T06:45:42.39Z</time>
      </trkpt>
      <trkpt lat="41.430440" lon="2.058370">
        <ele>252.20</ele>
        <time>2022-10-10T06:45:42.72Z</time>
      </trkpt>
      <trkpt lat="41.430430" lon="2.058310">
        <ele>253.20</ele>
        <time>2022-10-10T06:45:43.03Z</time>
      </trkpt>
      <trkpt lat="41.430370" lon="2.058120">
        <ele>256.80</ele>
        <time>2022-10-10T06:45:44.06Z</time>
      </trkpt>
      <trkpt lat="41.430340" lon="2.058030">
        <ele>258.60</ele>
        <time>2022-10-10T06:45:44.55Z</time>
      </trkpt>
      <trkpt lat="41.430340" lon="2.057990">
        <ele>258.60</ele>
        <time>2022-10-10T06:45:44.75Z</time>
      </trkpt>
      <trkpt lat="41.430350" lon="2.057830">
        <ele>258.40</ele>
        <time>2022-10-10T06:45:45.55Z</time>
      </trkpt>
      <trkpt lat="41.430370" lon="2.057780">
        <ele>257.70</ele>
        <time>2022-10-10T06:45:45.84Z</time>
      </trkpt>
      <trkpt lat="41.430420" lon="2.057650">
        <ele>255.90</ele>
        <time>2022-10-10T06:45:46.57Z</time>
      </trkpt>
      <trkpt lat="41.430400" lon="2.057520">
        <ele>256.60</ele>
        <time>2022-10-10T06:45:47.23Z</time>
      </trkpt>
      <trkpt lat="41.430330" lon="2.057410">
        <ele>259.30</ele>
        <time>2022-10-10T06:45:47.95Z</time>
      </trkpt>
      <trkpt lat="41.430330" lon="2.057360">
        <ele>259.40</ele>
        <time>2022-10-10T06:45:48.20Z</time>
      </trkpt>
      <trkpt lat="41.430360" lon="2.057310">
        <ele>258.30</ele>
        <time>2022-10-10T06:45:48.52Z</time>
      </trkpt>
      <trkpt lat="41.430440" lon="2.057190">
        <ele>255.10</ele>
        <time>2022-10-10T06:45:49.32Z</time>
      </trkpt>
      <trkpt lat="41.430510" lon="2.057070">
        <ele>252.20</ele>
        <time>2022-10-10T06:45:50.08Z</time>
      </trkpt>
      <trkpt lat="41.430540" lon="2.056990">
        <ele>250.80</ele>
        <time>2022-10-10T06:45:50.53Z</time>
      </trkpt>
      <trkpt lat="41.430560" lon="2.056900">
        <ele>250.50</ele>
        <time>2022-10-10T06:45:51Z</time>
      </trkpt>
      <trkpt lat="41.430560" lon="2.056780">
        <ele>252.20</ele>
        <time>2022-10-10T06:45:51.60Z</time>
      </trkpt>
      <trkpt lat="41.430560" lon="2.056670">
        <ele>253.80</ele>
        <time>2022-10-10T06:45:52.15Z</time>
      </trkpt>
      <trkpt lat="41.430520" lon="2.056540">
        <ele>258.90</ele>
        <time>2022-10-10T06:45:52.85Z</time>
      </trkpt>
      <trkpt lat="41.430520" lon="2.056440">
        <ele>261.10</ele>
        <time>2022-10-10T06:45:53.35Z</time>
      </trkpt>
      <trkpt lat="41.430520" lon="2.056410">
        <ele>261.80</ele>
        <time>2022-10-10T06:45:53.50Z</time>
      </trkpt>
      <trkpt lat="41.430520" lon="2.056350">
        <ele>263.10</ele>
        <time>2022-10-10T06:45:53.80Z</time>
      </trkpt>
      <trkpt lat="41.430540" lon="2.056320">
        <ele>262.50</ele>
        <time>2022-10-10T06:45:54Z</time>
      </trkpt>
      <trkpt lat="41.430560" lon="2.056300">
        <ele>261.80</ele>
        <time>2022-10-10T06:45:54.17Z</time>
      </trkpt>
      <trkpt lat="41.430630" lon="2.056260">
        <ele>260.00</ele>
        <time>2022-10-10T06:45:54.68Z</time>
      </trkpt>
      <trkpt lat="41.430700" lon="2.056230">
        <ele>257.90</ele>
        <time>2022-10-10T06:45:55.17Z</time>
      </trkpt>
      <trkpt lat="41.430780" lon="2.056210">
        <ele>255.30</ele>
        <time>2022-10-10T06:45:55.71Z</time>
      </trkpt>
      <trkpt lat="41.430960" lon="2.056190">
        <ele>249.80</ele>
        <time>2022-10-10T06:45:56.91Z</time>
      </trkpt>
      <trkpt lat="41.431120" lon="2.056060">
        <ele>248.00</ele>
        <time>2022-10-10T06:45:58.16Z</time>
      </trkpt>
      <trkpt lat="41.431200" lon="2.055890">
        <ele>251.10</ele>
        <time>2022-10-10T06:45:59.17Z</time>
      </trkpt>
      <trkpt lat="41.431260" lon="2.055860">
        <ele>251.40</ele>
        <time>2022-10-10T06:45:59.59Z</time>
      </trkpt>
      <trkpt lat="41.431320" lon="2.055830">
        <ele>251.60</ele>
        <time>2022-10-10T06:46:00.02Z</time>
      </trkpt>
      <trkpt lat="41.431380" lon="2.055840">
        <ele>250.90</ele>
        <time>2022-10-10T06:46:00.42Z</time>
      </trkpt>
      <trkpt lat="41.431430" lon="2.055860">
        <ele>250.00</ele>
        <time>2022-10-10T06:46:00.77Z</time>
      </trkpt>
      <trkpt lat="41.431610" lon="2.055900">
        <ele>247.40</ele>
        <time>2022-10-10T06:46:01.99Z</time>
      </trkpt>
      <trkpt lat="41.431670" lon="2.055900">
        <ele>246.80</ele>
        <time>2022-10-10T06:46:02.39Z</time>
      </trkpt>
      <trkpt lat="41.431740" lon="2.055900">
        <ele>246.60</ele>
        <time>2022-10-10T06:46:02.85Z</time>
      </trkpt>
      <trkpt lat="41.431800" lon="2.055880">
        <ele>246.80</ele>
        <time>2022-10-10T06:46:03.27Z</time>
      </trkpt>
      <trkpt lat="41.431860" lon="2.055860">
        <ele>246.90</ele>
        <time>2022-10-10T06:46:03.68Z</time>
      </trkpt>
      <trkpt lat="41.432000" lon="2.055800">
        <ele>247.50</ele>
        <time>2022-10-10T06:46:04.66Z</time>
      </trkpt>
      <trkpt lat="41.432090" lon="2.055730">
        <ele>248.30</ele>
        <time>2022-10-10T06:46:05.35Z</time>
      </trkpt>
      <trkpt lat="41.432130" lon="2.055690">
        <ele>248.50</ele>
        <time>2022-10-10T06:46:05.69Z</time>
      </trkpt>
      <trkpt lat="41.432170" lon="2.055620">
        <ele>248.90</ele>
        <time>2022-10-10T06:46:06.13Z</time>
      </trkpt>
      <trkpt lat="41.432190" lon="2.055630">
        <ele>248.80</ele>
        <time>2022-10-10T06:46:06.27Z</time>
      </trkpt>
      <trkpt lat="41.432210" lon="2.055630">
        <ele>248.80</ele>
        <time>2022-10-10T06:46:06.40Z</time>
      </trkpt>
      <trkpt lat="41.432240" lon="2.055630">
        <ele>248.50</ele>
        <time>2022-10-10T06:46:06.60Z</time>
      </trkpt>
      <trkpt lat="41.432260" lon="2.055610">
        <ele>248.20</ele>
        <time>2022-10-10T06:46:06.77Z</time>
      </trkpt>
      <trkpt lat="41.432290" lon="2.055590">
        <ele>247.90</ele>
        <time>2022-10-10T06:46:06.99Z</time>
      </trkpt>
      <trkpt lat="41.432310" lon="2.055560">
        <ele>247.70</ele>
        <time>2022-10-10T06:46:07.19Z</time>
      </trkpt>
      <trkpt lat="41.432320" lon="2.055510">
        <ele>247.50</ele>
        <time>2022-10-10T06:46:07.45Z</time>
      </trkpt>
      <trkpt lat="41.432320" lon="2.055460">
        <ele>247.30</ele>
        <time>2022-10-10T06:46:07.70Z</time>
      </trkpt>
      <trkpt lat="41.432310" lon="2.055430">
        <ele>247.50</ele>
        <time>2022-10-10T06:46:07.87Z</time>
      </trkpt>
      <trkpt lat="41.432290" lon="2.055390">
        <ele>247.90</ele>
        <time>2022-10-10T06:46:08.11Z</time>
      </trkpt>
      <trkpt lat="41.432280" lon="2.055360">
        <ele>248.10</ele>
        <time>2022-10-10T06:46:08.27Z</time>
      </trkpt>
      <trkpt lat="41.432240" lon="2.055290">
        <ele>249.40</ele>
        <time>2022-10-10T06:46:08.71Z</time>
      </trkpt>
      <trkpt lat="41.432070" lon="2.055070">
        <ele>248.90</ele>
        <time>2022-10-10T06:46:10.29Z</time>
      </trkpt>
      <trkpt lat="41.431990" lon="2.054970">
        <ele>248.90</ele>
        <time>2022-10-10T06:46:11.02Z</time>
      </trkpt>
      <trkpt lat="41.431940" lon="2.054940">
        <ele>249.20</ele>
        <time>2022-10-10T06:46:11.39Z</time>
      </trkpt>
      <trkpt lat="41.431910" lon="2.054910">
        <ele>249.40</ele>
        <time>2022-10-10T06:46:11.64Z</time>
      </trkpt>
      <trkpt lat="41.431870" lon="2.054860">
        <ele>249.50</ele>
        <time>2022-10-10T06:46:12Z</time>
      </trkpt>
      <trkpt lat="41.431850" lon="2.054830">
        <ele>249.50</ele>
        <time>2022-10-10T06:46:12.20Z</time>
      </trkpt>
      <trkpt lat="41.431850" lon="2.054790">
        <ele>248.90</ele>
        <time>2022-10-10T06:46:12.40Z</time>
      </trkpt>
      <trkpt lat="41.431860" lon="2.054740">
        <ele>248.10</ele>
        <time>2022-10-10T06:46:12.66Z</time>
      </trkpt>
      <trkpt lat="41.431880" lon="2.054710">
        <ele>247.20</ele>
        <time>2022-10-10T06:46:12.86Z</time>
      </trkpt>
      <trkpt lat="41.431910" lon="2.054630">
        <ele>245.50</ele>
        <time>2022-10-10T06:46:13.31Z</time>
      </trkpt>
      <trkpt lat="41.431940" lon="2.054560">
        <ele>243.80</ele>
        <time>2022-10-10T06:46:13.71Z</time>
      </trkpt>
      <trkpt lat="41.431960" lon="2.054480">
        <ele>242.30</ele>
        <time>2022-10-10T06:46:14.13Z</time>
      </trkpt>
      <trkpt lat="41.431960" lon="2.054400">
        <ele>241.30</ele>
        <time>2022-10-10T06:46:14.53Z</time>
      </trkpt>
      <trkpt lat="41.431970" lon="2.054270">
        <ele>239.70</ele>
        <time>2022-10-10T06:46:15.19Z</time>
      </trkpt>
      <trkpt lat="41.431990" lon="2.053950">
        <ele>236.50</ele>
        <time>2022-10-10T06:46:16.79Z</time>
      </trkpt>
      <trkpt lat="41.432000" lon="2.053740">
        <ele>234.30</ele>
        <time>2022-10-10T06:46:17.84Z</time>
      </trkpt>
      <trkpt lat="41.432000" lon="2.053640">
        <ele>233.30</ele>
        <time>2022-10-10T06:46:18.34Z</time>
      </trkpt>
      <trkpt lat="41.431990" lon="2.053550">
        <ele>232.50</ele>
        <time>2022-10-10T06:46:18.80Z</time>
      </trkpt>
      <trkpt lat="41.431980" lon="2.053470">
        <ele>231.80</ele>
        <time>2022-10-10T06:46:19.20Z</time>
      </trkpt>
      <trkpt lat="41.431960" lon="2.053390">
        <ele>231.30</ele>
        <time>2022-10-10T06:46:19.62Z</time>
      </trkpt>
      <trkpt lat="41.431940" lon="2.053340">
        <ele>231.20</ele>
        <time>2022-10-10T06:46:19.91Z</time>
      </trkpt>
      <trkpt lat="41.431940" lon="2.053290">
        <ele>230.30</ele>
        <time>2022-10-10T06:46:20.16Z</time>
      </trkpt>
      <trkpt lat="41.431950" lon="2.053260">
        <ele>229.60</ele>
        <time>2022-10-10T06:46:20.32Z</time>
      </trkpt>
      <trkpt lat="41.431970" lon="2.053240">
        <ele>228.80</ele>
        <time>2022-10-10T06:46:20.49Z</time>
      </trkpt>
      <trkpt lat="41.431990" lon="2.053240">
        <ele>228.40</ele>
        <time>2022-10-10T06:46:20.62Z</time>
      </trkpt>
      <trkpt lat="41.432010" lon="2.053250">
        <ele>228.30</ele>
        <time>2022-10-10T06:46:20.76Z</time>
      </trkpt>
      <trkpt lat="41.432030" lon="2.053280">
        <ele>228.40</ele>
        <time>2022-10-10T06:46:20.96Z</time>
      </trkpt>
      <trkpt lat="41.432040" lon="2.053310">
        <ele>228.80</ele>
        <time>2022-10-10T06:46:21.13Z</time>
      </trkpt>
      <trkpt lat="41.432060" lon="2.053370">
        <ele>229.30</ele>
        <time>2022-10-10T06:46:21.46Z</time>
      </trkpt>
      <trkpt lat="41.432100" lon="2.053560">
        <ele>230.60</ele>
        <time>2022-10-10T06:46:22.44Z</time>
      </trkpt>
      <trkpt lat="41.432130" lon="2.053660">
        <ele>231.10</ele>
        <time>2022-10-10T06:46:22.98Z</time>
      </trkpt>
      <trkpt lat="41.432160" lon="2.053750">
        <ele>231.20</ele>
        <time>2022-10-10T06:46:23.47Z</time>
      </trkpt>
      <trkpt lat="41.432220" lon="2.053940">
        <ele>231.60</ele>
        <time>2022-10-10T06:46:24.50Z</time>
      </trkpt>
      <trkpt lat="41.432240" lon="2.054010">
        <ele>231.80</ele>
        <time>2022-10-10T06:46:24.88Z</time>
      </trkpt>
      <trkpt lat="41.432270" lon="2.054070">
        <ele>231.50</ele>
        <time>2022-10-10T06:46:25.24Z</time>
      </trkpt>
      <trkpt lat="41.432300" lon="2.054110">
        <ele>230.90</ele>
        <time>2022-10-10T06:46:25.52Z</time>
      </trkpt>
      <trkpt lat="41.432330" lon="2.054140">
        <ele>230.30</ele>
        <time>2022-10-10T06:46:25.77Z</time>
      </trkpt>
      <trkpt lat="41.432350" lon="2.054160">
        <ele>229.80</ele>
        <time>2022-10-10T06:46:25.94Z</time>
      </trkpt>
      <trkpt lat="41.432390" lon="2.054200">
        <ele>229.00</ele>
        <time>2022-10-10T06:46:26.27Z</time>
      </trkpt>
      <trkpt lat="41.432420" lon="2.054260">
        <ele>228.70</ele>
        <time>2022-10-10T06:46:26.63Z</time>
      </trkpt>
      <trkpt lat="41.432430" lon="2.054140">
        <ele>227.10</ele>
        <time>2022-10-10T06:46:27.24Z</time>
      </trkpt>
      <trkpt lat="41.432430" lon="2.054030">
        <ele>226.20</ele>
        <time>2022-10-10T06:46:27.79Z</time>
      </trkpt>
      <trkpt lat="41.432420" lon="2.053920">
        <ele>225.60</ele>
        <time>2022-10-10T06:46:28.34Z</time>
      </trkpt>
      <trkpt lat="41.432390" lon="2.053830">
        <ele>225.70</ele>
        <time>2022-10-10T06:46:28.83Z</time>
      </trkpt>
      <trkpt lat="41.432270" lon="2.053460">
        <ele>225.80</ele>
        <time>2022-10-10T06:46:30.85Z</time>
      </trkpt>
      <trkpt lat="41.432180" lon="2.053200">
        <ele>223.90</ele>
        <time>2022-10-10T06:46:32.28Z</time>
      </trkpt>
      <trkpt lat="41.432130" lon="2.053080">
        <ele>222.50</ele>
        <time>2022-10-10T06:46:32.96Z</time>
      </trkpt>
      <trkpt lat="41.432050" lon="2.053000">
        <ele>222.10</ele>
        <time>2022-10-10T06:46:33.63Z</time>
      </trkpt>
      <trkpt lat="41.431970" lon="2.052950">
        <ele>222.40</ele>
        <time>2022-10-10T06:46:34.22Z</time>
      </trkpt>
      <trkpt lat="41.431790" lon="2.052900">
        <ele>224.30</ele>
        <time>2022-10-10T06:46:35.45Z</time>
      </trkpt>
      <trkpt lat="41.431460" lon="2.052830">
        <ele>229.00</ele>
        <time>2022-10-10T06:46:37.67Z</time>
      </trkpt>
      <trkpt lat="41.431520" lon="2.052790">
        <ele>226.50</ele>
        <time>2022-10-10T06:46:38.12Z</time>
      </trkpt>
      <trkpt lat="41.431522" lon="2.052855">
        <ele>245.59</ele>
        <time>2022-10-10T10:50:14Z</time>
      </trkpt>
      <trkpt lat="41.431152" lon="2.052866">
        <ele>252.18</ele>
        <time>2022-10-10T10:50:54Z</time>
      </trkpt>
      <trkpt lat="41.431152" lon="2.052512">
        <ele>243.48</ele>
        <time>2022-10-10T10:51:34Z</time>
      </trkpt>
      <trkpt lat="41.430991" lon="2.052051">
        <ele>245.95</ele>
        <time>2022-10-10T10:52:14Z</time>
      </trkpt>
      <trkpt lat="41.430983" lon="2.051536">
        <ele>247.29</ele>
        <time>2022-10-10T10:52:54Z</time>
      </trkpt>
      <trkpt lat="41.430605" lon="2.051257">
        <ele>258.61</ele>
        <time>2022-10-10T10:53:34Z</time>
      </trkpt>
      <trkpt lat="41.430412" lon="2.050946">
        <ele>256.33</ele>
        <time>2022-10-10T10:54:14Z</time>
      </trkpt>
      <trkpt lat="41.429954" lon="2.050956">
        <ele>267.26</ele>
        <time>2022-10-10T10:54:54Z</time>
      </trkpt>
      <trkpt lat="41.429446" lon="2.050352">
        <ele>269.71</ele>
        <time>2022-10-10T10:55:34Z</time>
      </trkpt>
      <trkpt lat="41.429550" lon="2.049722">
        <ele>262.00</ele>
        <time>2022-10-10T10:56:03.69Z</time>
      </trkpt>
      <trkpt lat="41.429696" lon="2.049639">
        <ele>260.95</ele>
        <time>2022-10-10T10:56:07.72Z</time>
      </trkpt>
      <trkpt lat="41.429510" lon="2.049647">
        <ele>259.32</ele>
        <time>2022-10-10T10:56:14Z</time>
      </trkpt>
      <trkpt lat="41.429173" lon="2.049036">
        <ele>252.50</ele>
        <time>2022-10-10T10:56:54Z</time>
      </trkpt>
      <trkpt lat="41.428650" lon="2.049256">
        <ele>248.67</ele>
        <time>2022-10-10T10:57:34Z</time>
      </trkpt>
      <trkpt lat="41.428644" lon="2.049290">
        <ele>243.70</ele>
        <time>2013-12-05T10:31:46Z</time>
      </trkpt>
      <trkpt lat="41.428554" lon="2.049346">
        <ele>242.36</ele>
        <time>2013-12-05T10:31:59Z</time>
      </trkpt>
      <trkpt lat="41.428483" lon="2.049388">
        <ele>241.18</ele>
        <time>2013-12-05T10:32:13Z</time>
      </trkpt>
      <trkpt lat="41.428404" lon="2.049423">
        <ele>240.05</ele>
        <time>2013-12-05T10:32:25Z</time>
      </trkpt>
      <trkpt lat="41.428320" lon="2.049442">
        <ele>239.78</ele>
        <time>2013-12-05T10:32:38Z</time>
      </trkpt>
      <trkpt lat="41.428237" lon="2.049478">
        <ele>237.61</ele>
        <time>2013-12-05T10:32:54Z</time>
      </trkpt>
      <trkpt lat="41.428152" lon="2.049500">
        <ele>236.11</ele>
        <time>2013-12-05T10:33:13Z</time>
      </trkpt>
      <trkpt lat="41.428063" lon="2.049497">
        <ele>235.70</ele>
        <time>2013-12-05T10:33:33Z</time>
      </trkpt>
      <trkpt lat="41.427978" lon="2.049468">
        <ele>232.85</ele>
        <time>2013-12-05T10:33:45Z</time>
      </trkpt>
      <trkpt lat="41.427895" lon="2.049443">
        <ele>231.80</ele>
        <time>2013-12-05T10:34:01Z</time>
      </trkpt>
      <trkpt lat="41.427812" lon="2.049473">
        <ele>230.24</ele>
        <time>2013-12-05T10:34:28Z</time>
      </trkpt>
      <trkpt lat="41.427725" lon="2.049495">
        <ele>228.86</ele>
        <time>2013-12-05T10:34:45Z</time>
      </trkpt>
      <trkpt lat="41.427643" lon="2.049525">
        <ele>226.92</ele>
        <time>2013-12-05T10:35:04Z</time>
      </trkpt>
      <trkpt lat="41.427562" lon="2.049568">
        <ele>224.42</ele>
        <time>2013-12-05T10:35:39Z</time>
      </trkpt>
      <trkpt lat="41.427473" lon="2.049570">
        <ele>223.76</ele>
        <time>2013-12-05T10:36:01Z</time>
      </trkpt>
      <trkpt lat="41.427388" lon="2.049580">
        <ele>222.09</ele>
        <time>2013-12-05T10:36:17Z</time>
      </trkpt>
      <trkpt lat="41.427305" lon="2.049615">
        <ele>221.41</ele>
        <time>2013-12-05T10:36:30Z</time>
      </trkpt>
      <trkpt lat="41.427224" lon="2.049625">
        <ele>221.02</ele>
        <time>2013-12-05T10:36:40Z</time>
      </trkpt>
      <trkpt lat="41.427135" lon="2.049612">
        <ele>220.39</ele>
        <time>2013-12-05T10:36:55Z</time>
      </trkpt>
      <trkpt lat="41.427053" lon="2.049567">
        <ele>219.69</ele>
        <time>2013-12-05T10:37:11Z</time>
      </trkpt>
      <trkpt lat="41.426970" lon="2.049545">
        <ele>218.78</ele>
        <time>2013-12-05T10:37:22Z</time>
      </trkpt>
      <trkpt lat="41.426882" lon="2.049550">
        <ele>218.55</ele>
        <time>2013-12-05T10:37:33Z</time>
      </trkpt>
      <trkpt lat="41.426802" lon="2.049573">
        <ele>218.11</ele>
        <time>2013-12-05T10:37:42Z</time>
      </trkpt>
      <trkpt lat="41.426737" lon="2.049650">
        <ele>218.26</ele>
        <time>2013-12-05T10:38:03Z</time>
      </trkpt>
      <trkpt lat="41.426683" lon="2.049737">
        <ele>217.92</ele>
        <time>2013-12-05T10:38:16Z</time>
      </trkpt>
      <trkpt lat="41.426632" lon="2.049830">
        <ele>215.87</ele>
        <time>2013-12-05T10:38:34Z</time>
      </trkpt>
      <trkpt lat="41.426585" lon="2.049932">
        <ele>214.23</ele>
        <time>2013-12-05T10:38:50Z</time>
      </trkpt>
      <trkpt lat="41.426583" lon="2.050047">
        <ele>212.81</ele>
        <time>2013-12-05T10:39:03Z</time>
      </trkpt>
      <trkpt lat="41.426585" lon="2.050160">
        <ele>211.80</ele>
        <time>2013-12-05T10:39:17Z</time>
      </trkpt>
      <trkpt lat="41.426597" lon="2.050270">
        <ele>210.42</ele>
        <time>2013-12-05T10:39:28Z</time>
      </trkpt>
      <trkpt lat="41.426637" lon="2.050370">
        <ele>209.81</ele>
        <time>2013-12-05T10:39:41Z</time>
      </trkpt>
      <trkpt lat="41.426710" lon="2.050432">
        <ele>208.34</ele>
        <time>2013-12-05T10:40:07Z</time>
      </trkpt>
      <trkpt lat="41.426790" lon="2.050483">
        <ele>206.94</ele>
        <time>2013-12-05T10:40:20Z</time>
      </trkpt>
      <trkpt lat="41.426867" lon="2.050535">
        <ele>206.06</ele>
        <time>2013-12-05T10:40:32Z</time>
      </trkpt>
      <trkpt lat="41.426930" lon="2.050603">
        <ele>204.70</ele>
        <time>2013-12-05T10:40:45Z</time>
      </trkpt>
      <trkpt lat="41.427010" lon="2.050638">
        <ele>204.22</ele>
        <time>2013-12-05T10:41:28Z</time>
      </trkpt>
      <trkpt lat="41.427077" lon="2.050718">
        <ele>204.59</ele>
        <time>2013-12-05T10:41:39Z</time>
      </trkpt>
      <trkpt lat="41.427125" lon="2.050812">
        <ele>203.89</ele>
        <time>2013-12-05T10:41:48Z</time>
      </trkpt>
      <trkpt lat="41.427155" lon="2.050917">
        <ele>202.61</ele>
        <time>2013-12-05T10:42:00Z</time>
      </trkpt>
      <trkpt lat="41.427175" lon="2.051028">
        <ele>200.81</ele>
        <time>2013-12-05T10:42:13Z</time>
      </trkpt>
      <trkpt lat="41.427133" lon="2.051133">
        <ele>200.16</ele>
        <time>2013-12-05T10:42:44Z</time>
      </trkpt>
      <trkpt lat="41.427047" lon="2.051157">
        <ele>200.25</ele>
        <time>2013-12-05T10:43:14Z</time>
      </trkpt>
      <trkpt lat="41.426970" lon="2.051215">
        <ele>199.48</ele>
        <time>2013-12-05T10:43:31Z</time>
      </trkpt>
      <trkpt lat="41.426897" lon="2.051270">
        <ele>198.45</ele>
        <time>2013-12-05T10:43:41Z</time>
      </trkpt>
      <trkpt lat="41.426815" lon="2.051292">
        <ele>196.93</ele>
        <time>2013-12-05T10:43:49Z</time>
      </trkpt>
      <trkpt lat="41.426735" lon="2.051315">
        <ele>196.42</ele>
        <time>2013-12-05T10:44:18Z</time>
      </trkpt>
      <trkpt lat="41.426825" lon="2.051313">
        <ele>195.09</ele>
        <time>2013-12-05T10:46:10Z</time>
      </trkpt>
      <trkpt lat="41.426743" lon="2.051335">
        <ele>194.13</ele>
        <time>2013-12-05T10:46:21Z</time>
      </trkpt>
      <trkpt lat="41.426655" lon="2.051325">
        <ele>193.89</ele>
        <time>2013-12-05T10:46:31Z</time>
      </trkpt>
      <trkpt lat="41.426570" lon="2.051307">
        <ele>192.91</ele>
        <time>2013-12-05T10:46:41Z</time>
      </trkpt>
      <trkpt lat="41.426485" lon="2.051288">
        <ele>192.72</ele>
        <time>2013-12-05T10:46:51Z</time>
      </trkpt>
      <trkpt lat="41.426402" lon="2.051278">
        <ele>192.40</ele>
        <time>2013-12-05T10:47:01Z</time>
      </trkpt>
      <trkpt lat="41.426318" lon="2.051304">
        <ele>191.86</ele>
        <time>2013-12-05T10:47:16Z</time>
      </trkpt>
      <trkpt lat="41.426232" lon="2.051302">
        <ele>191.55</ele>
        <time>2013-12-05T10:47:26Z</time>
      </trkpt>
      <trkpt lat="41.426150" lon="2.051318">
        <ele>190.37</ele>
        <time>2013-12-05T10:47:37Z</time>
      </trkpt>
      <trkpt lat="41.426068" lon="2.051357">
        <ele>189.32</ele>
        <time>2013-12-05T10:47:49Z</time>
      </trkpt>
      <trkpt lat="41.425987" lon="2.051382">
        <ele>188.76</ele>
        <time>2013-12-05T10:48:01Z</time>
      </trkpt>
      <trkpt lat="41.425898" lon="2.051400">
        <ele>187.22</ele>
        <time>2013-12-05T10:48:14Z</time>
      </trkpt>
      <trkpt lat="41.425815" lon="2.051435">
        <ele>185.80</ele>
        <time>2013-12-05T10:48:29Z</time>
      </trkpt>
      <trkpt lat="41.425733" lon="2.051402">
        <ele>186.32</ele>
        <time>2013-12-05T10:48:56Z</time>
      </trkpt>
      <trkpt lat="41.425647" lon="2.051419">
        <ele>185.21</ele>
        <time>2013-12-05T10:49:07Z</time>
      </trkpt>
      <trkpt lat="41.425562" lon="2.051455">
        <ele>183.92</ele>
        <time>2013-12-05T10:49:18Z</time>
      </trkpt>
      <trkpt lat="41.425480" lon="2.051428">
        <ele>182.97</ele>
        <time>2013-12-05T10:50:09Z</time>
      </trkpt>
      <trkpt lat="41.425408" lon="2.051498">
        <ele>181.19</ele>
        <time>2013-12-05T10:50:24Z</time>
      </trkpt>
      <trkpt lat="41.425347" lon="2.051583">
        <ele>181.10</ele>
        <time>2013-12-05T10:50:39Z</time>
      </trkpt>
      <trkpt lat="41.425293" lon="2.051678">
        <ele>180.03</ele>
        <time>2013-12-05T10:51:03Z</time>
      </trkpt>
      <trkpt lat="41.425218" lon="2.051740">
        <ele>178.55</ele>
        <time>2013-12-05T10:51:22Z</time>
      </trkpt>
      <trkpt lat="41.425145" lon="2.051798">
        <ele>177.22</ele>
        <time>2013-12-05T10:51:35Z</time>
      </trkpt>
      <trkpt lat="41.425070" lon="2.051855">
        <ele>175.44</ele>
        <time>2013-12-05T10:52:07Z</time>
      </trkpt>
      <trkpt lat="41.424987" lon="2.051900">
        <ele>174.66</ele>
        <time>2013-12-05T10:52:19Z</time>
      </trkpt>
      <trkpt lat="41.424902" lon="2.051910">
        <ele>173.19</ele>
        <time>2013-12-05T10:52:32Z</time>
      </trkpt>
      <trkpt lat="41.424813" lon="2.051907">
        <ele>172.41</ele>
        <time>2013-12-05T10:52:42Z</time>
      </trkpt>
      <trkpt lat="41.424732" lon="2.051887">
        <ele>172.22</ele>
        <time>2013-12-05T10:52:53Z</time>
      </trkpt>
      <trkpt lat="41.424643" lon="2.051880">
        <ele>171.01</ele>
        <time>2013-12-05T10:53:30Z</time>
      </trkpt>
      <trkpt lat="41.424560" lon="2.051835">
        <ele>170.68</ele>
        <time>2013-12-05T10:53:55Z</time>
      </trkpt>
      <trkpt lat="41.424490" lon="2.051768">
        <ele>170.90</ele>
        <time>2013-12-05T10:54:04Z</time>
      </trkpt>
      <trkpt lat="41.424434" lon="2.051687">
        <ele>170.84</ele>
        <time>2013-12-05T10:54:14Z</time>
      </trkpt>
      <trkpt lat="41.424398" lon="2.051578">
        <ele>171.55</ele>
        <time>2013-12-05T10:54:46Z</time>
      </trkpt>
      <trkpt lat="41.424358" lon="2.051478">
        <ele>171.14</ele>
        <time>2013-12-05T10:54:54Z</time>
      </trkpt>
      <trkpt lat="41.424343" lon="2.051367">
        <ele>171.23</ele>
        <time>2013-12-05T10:55:48Z</time>
      </trkpt>
      <trkpt lat="41.424397" lon="2.051273">
        <ele>170.86</ele>
        <time>2013-12-05T10:55:58Z</time>
      </trkpt>
      <trkpt lat="41.424425" lon="2.051173">
        <ele>170.94</ele>
        <time>2013-12-05T10:56:09Z</time>
      </trkpt>
      <trkpt lat="41.424460" lon="2.051065">
        <ele>170.81</ele>
        <time>2013-12-05T10:56:28Z</time>
      </trkpt>
      <trkpt lat="41.424470" lon="2.050948">
        <ele>170.92</ele>
        <time>2013-12-05T10:56:40Z</time>
      </trkpt>
      <trkpt lat="41.424488" lon="2.050837">
        <ele>172.09</ele>
        <time>2013-12-05T10:56:49Z</time>
      </trkpt>
      <trkpt lat="41.424503" lon="2.050733">
        <ele>172.48</ele>
        <time>2013-12-05T10:57:00Z</time>
      </trkpt>
      <trkpt lat="41.424523" lon="2.050622">
        <ele>172.45</ele>
        <time>2013-12-05T10:57:09Z</time>
      </trkpt>
      <trkpt lat="41.424518" lon="2.050513">
        <ele>173.06</ele>
        <time>2013-12-05T10:57:17Z</time>
      </trkpt>
      <trkpt lat="41.424498" lon="2.050400">
        <ele>173.18</ele>
        <time>2013-12-05T10:57:26Z</time>
      </trkpt>
      <trkpt lat="41.424470" lon="2.050293">
        <ele>173.17</ele>
        <time>2013-12-05T10:57:35Z</time>
      </trkpt>
      <trkpt lat="41.424440" lon="2.050192">
        <ele>173.35</ele>
        <time>2013-12-05T10:57:43Z</time>
      </trkpt>
      <trkpt lat="41.424412" lon="2.050090">
        <ele>173.42</ele>
        <time>2013-12-05T10:57:51Z</time>
      </trkpt>
      <trkpt lat="41.424380" lon="2.049987">
        <ele>173.73</ele>
        <time>2013-12-05T10:57:59Z</time>
      </trkpt>
      <trkpt lat="41.424353" lon="2.049882">
        <ele>174.91</ele>
        <time>2013-12-05T10:58:07Z</time>
      </trkpt>
      <trkpt lat="41.424337" lon="2.049777">
        <ele>174.62</ele>
        <time>2013-12-05T10:58:15Z</time>
      </trkpt>
      <trkpt lat="41.424322" lon="2.049662">
        <ele>175.16</ele>
        <time>2013-12-05T10:58:25Z</time>
      </trkpt>
      <trkpt lat="41.424303" lon="2.049558">
        <ele>175.49</ele>
        <time>2013-12-05T10:58:34Z</time>
      </trkpt>
      <trkpt lat="41.424280" lon="2.049443">
        <ele>175.64</ele>
        <time>2013-12-05T10:58:43Z</time>
      </trkpt>
      <trkpt lat="41.424255" lon="2.049328">
        <ele>177.76</ele>
        <time>2013-12-05T10:58:54Z</time>
      </trkpt>
      <trkpt lat="41.424233" lon="2.049220">
        <ele>178.88</ele>
        <time>2013-12-05T10:59:05Z</time>
      </trkpt>
      <trkpt lat="41.424205" lon="2.049113">
        <ele>179.86</ele>
        <time>2013-12-05T10:59:17Z</time>
      </trkpt>
      <trkpt lat="41.424158" lon="2.049012">
        <ele>181.46</ele>
        <time>2013-12-05T10:59:31Z</time>
      </trkpt>
      <trkpt lat="41.424118" lon="2.048912">
        <ele>182.12</ele>
        <time>2013-12-05T10:59:48Z</time>
      </trkpt>
      <trkpt lat="41.424083" lon="2.048810">
        <ele>183.21</ele>
        <time>2013-12-05T11:00:02Z</time>
      </trkpt>
      <trkpt lat="41.424037" lon="2.048715">
        <ele>184.81</ele>
        <time>2013-12-05T11:00:12Z</time>
      </trkpt>
      <trkpt lat="41.423982" lon="2.048629">
        <ele>186.01</ele>
        <time>2013-12-05T11:00:22Z</time>
      </trkpt>
      <trkpt lat="41.423925" lon="2.048538">
        <ele>187.10</ele>
        <time>2013-12-05T11:00:31Z</time>
      </trkpt>
      <trkpt lat="41.423872" lon="2.048448">
        <ele>188.75</ele>
        <time>2013-12-05T11:00:39Z</time>
      </trkpt>
      <trkpt lat="41.423827" lon="2.048355">
        <ele>189.59</ele>
        <time>2013-12-05T11:00:46Z</time>
      </trkpt>
      <trkpt lat="41.423795" lon="2.048252">
        <ele>189.99</ele>
        <time>2013-12-05T11:00:54Z</time>
      </trkpt>
      <trkpt lat="41.423775" lon="2.048147">
        <ele>191.79</ele>
        <time>2013-12-05T11:01:56Z</time>
      </trkpt>
      <trkpt lat="41.423807" lon="2.048035">
        <ele>193.40</ele>
        <time>2013-12-05T11:02:07Z</time>
      </trkpt>
      <trkpt lat="41.423850" lon="2.047945">
        <ele>194.16</ele>
        <time>2013-12-05T11:02:16Z</time>
      </trkpt>
      <trkpt lat="41.423888" lon="2.047843">
        <ele>194.29</ele>
        <time>2013-12-05T11:02:25Z</time>
      </trkpt>
      <trkpt lat="41.423923" lon="2.047740">
        <ele>195.52</ele>
        <time>2013-12-05T11:02:34Z</time>
      </trkpt>
      <trkpt lat="41.423938" lon="2.047622">
        <ele>196.01</ele>
        <time>2013-12-05T11:02:43Z</time>
      </trkpt>
      <trkpt lat="41.423943" lon="2.047507">
        <ele>195.32</ele>
        <time>2013-12-05T11:02:52Z</time>
      </trkpt>
      <trkpt lat="41.423935" lon="2.047395">
        <ele>195.22</ele>
        <time>2013-12-05T11:03:00Z</time>
      </trkpt>
      <trkpt lat="41.423937" lon="2.047290">
        <ele>194.44</ele>
        <time>2013-12-05T11:03:08Z</time>
      </trkpt>
      <trkpt lat="41.423925" lon="2.047173">
        <ele>194.57</ele>
        <time>2013-12-05T11:03:19Z</time>
      </trkpt>
      <trkpt lat="41.423890" lon="2.047027">
        <ele>194.79</ele>
        <time>2013-12-05T11:06:05Z</time>
      </trkpt>
      <trkpt lat="41.423848" lon="2.046814">
        <ele>194.47</ele>
        <time>2013-12-05T11:06:46Z</time>
      </trkpt>
      <trkpt lat="41.423836" lon="2.046570">
        <ele>194.40</ele>
        <time>2013-12-05T11:06:54Z</time>
      </trkpt>
      <trkpt lat="41.423840" lon="2.046276">
        <ele>194.42</ele>
        <time>2013-12-05T11:07:02Z</time>
      </trkpt>
      <trkpt lat="41.423821" lon="2.045991">
        <ele>193.87</ele>
        <time>2013-12-05T11:07:10Z</time>
      </trkpt>
      <trkpt lat="41.423810" lon="2.045545">
        <ele>193.80</ele>
        <time>2013-12-05T11:07:18Z</time>
      </trkpt>
      <trkpt lat="41.423806" lon="2.045194">
        <ele>193.91</ele>
        <time>2013-12-05T11:07:26Z</time>
      </trkpt>
      <trkpt lat="41.423783" lon="2.044808">
        <ele>194.31</ele>
        <time>2013-12-05T11:07:34Z</time>
      </trkpt>
      <trkpt lat="41.423753" lon="2.044351">
        <ele>193.89</ele>
        <time>2013-12-05T11:07:45Z</time>
      </trkpt>
      <trkpt lat="41.423795" lon="2.044300">
        <ele>184.00</ele>
        <time>2022-10-10T07:06:32.73Z</time>
      </trkpt>
      <trkpt lat="41.424560" lon="2.042246">
        <ele>177.30</ele>
        <time>2022-10-10T07:06:41.57Z</time>
      </trkpt>
      <trkpt lat="41.424764" lon="2.041700">
        <ele>172.95</ele>
        <time>2022-10-10T07:06:44.35Z</time>
      </trkpt>
      <trkpt lat="41.424700" lon="2.040853">
        <ele>165.80</ele>
        <time>2022-10-10T07:06:48.91Z</time>
      </trkpt>
      <trkpt lat="41.423956" lon="2.040480">
        <ele>155.53</ele>
        <time>2022-10-10T07:06:53.29Z</time>
      </trkpt>
      <trkpt lat="41.423375" lon="2.040882">
        <ele>146.60</ele>
        <time>2022-10-10T07:06:57.10Z</time>
      </trkpt>
      <trkpt lat="41.423482" lon="2.040192">
        <ele>149.93</ele>
        <time>2022-10-10T07:07:04.56Z</time>
      </trkpt>
      <trkpt lat="41.423935" lon="2.039776">
        <ele>153.30</ele>
        <time>2022-10-10T07:07:12.11Z</time>
      </trkpt>
      <trkpt lat="41.424473" lon="2.039632">
        <ele>147.71</ele>
        <time>2022-10-10T07:07:17.96Z</time>
      </trkpt>
      <trkpt lat="41.425190" lon="2.040250">
        <ele>141.00</ele>
        <time>2022-10-10T07:07:24.99Z</time>
      </trkpt>
      <trkpt lat="41.425160" lon="2.040190">
        <ele>140.80</ele>
        <time>2022-10-10T07:07:25.35Z</time>
      </trkpt>
      <trkpt lat="41.425110" lon="2.039950">
        <ele>135.40</ele>
        <time>2022-10-10T07:07:26.59Z</time>
      </trkpt>
      <trkpt lat="41.425030" lon="2.039660">
        <ele>128.60</ele>
        <time>2022-10-10T07:07:28.14Z</time>
      </trkpt>
      <trkpt lat="41.424960" lon="2.039510">
        <ele>127.10</ele>
        <time>2022-10-10T07:07:29.02Z</time>
      </trkpt>
      <trkpt lat="41.424840" lon="2.039330">
        <ele>126.40</ele>
        <time>2022-10-10T07:07:30.22Z</time>
      </trkpt>
      <trkpt lat="41.424710" lon="2.039200">
        <ele>126.20</ele>
        <time>2022-10-10T07:07:31.31Z</time>
      </trkpt>
      <trkpt lat="41.424600" lon="2.039110">
        <ele>125.60</ele>
        <time>2022-10-10T07:07:32.17Z</time>
      </trkpt>
      <trkpt lat="41.424420" lon="2.039020">
        <ele>124.80</ele>
        <time>2022-10-10T07:07:33.45Z</time>
      </trkpt>
      <trkpt lat="41.424420" lon="2.039020">
        <ele>124.80</ele>
        <time>2022-10-10T07:07:33.51Z</time>
      </trkpt>
      <trkpt lat="41.424420" lon="2.039030">
        <ele>125.20</ele>
        <time>2022-10-10T07:07:33.57Z</time>
      </trkpt>
      <trkpt lat="41.424310" lon="2.038980">
        <ele>123.80</ele>
        <time>2022-10-10T07:07:34.34Z</time>
      </trkpt>
      <trkpt lat="41.424170" lon="2.038890">
        <ele>121.00</ele>
        <time>2022-10-10T07:07:35.38Z</time>
      </trkpt>
      <trkpt lat="41.424040" lon="2.038820">
        <ele>119.30</ele>
        <time>2022-10-10T07:07:36.31Z</time>
      </trkpt>
      <trkpt lat="41.424010" lon="2.038820">
        <ele>119.20</ele>
        <time>2022-10-10T07:07:36.51Z</time>
      </trkpt>
      <trkpt lat="41.423980" lon="2.038730">
        <ele>117.50</ele>
        <time>2022-10-10T07:07:37.01Z</time>
      </trkpt>
      <trkpt lat="41.423950" lon="2.038690">
        <ele>116.60</ele>
        <time>2022-10-10T07:07:37.29Z</time>
      </trkpt>
      <trkpt lat="41.423890" lon="2.038630">
        <ele>115.30</ele>
        <time>2022-10-10T07:07:37.79Z</time>
      </trkpt>
      <trkpt lat="41.423870" lon="2.038560">
        <ele>114.70</ele>
        <time>2022-10-10T07:07:38.16Z</time>
      </trkpt>
      <trkpt lat="41.423930" lon="2.038520">
        <ele>114.30</ele>
        <time>2022-10-10T07:07:38.61Z</time>
      </trkpt>
      <trkpt lat="41.423970" lon="2.038450">
        <ele>113.60</ele>
        <time>2022-10-10T07:07:39.05Z</time>
      </trkpt>
      <trkpt lat="41.424000" lon="2.038420">
        <ele>113.20</ele>
        <time>2022-10-10T07:07:39.30Z</time>
      </trkpt>
      <trkpt lat="41.423970" lon="2.038340">
        <ele>112.50</ele>
        <time>2022-10-10T07:07:39.75Z</time>
      </trkpt>
      <trkpt lat="41.423990" lon="2.038230">
        <ele>112.10</ele>
        <time>2022-10-10T07:07:40.31Z</time>
      </trkpt>
      <trkpt lat="41.424040" lon="2.038150">
        <ele>111.60</ele>
        <time>2022-10-10T07:07:40.83Z</time>
      </trkpt>
      <trkpt lat="41.424080" lon="2.038050">
        <ele>110.90</ele>
        <time>2022-10-10T07:07:41.40Z</time>
      </trkpt>
      <trkpt lat="41.424120" lon="2.037950">
        <ele>110.20</ele>
        <time>2022-10-10T07:07:41.97Z</time>
      </trkpt>
      <trkpt lat="41.424170" lon="2.037830">
        <ele>109.10</ele>
        <time>2022-10-10T07:07:42.65Z</time>
      </trkpt>
      <trkpt lat="41.424210" lon="2.037720">
        <ele>107.80</ele>
        <time>2022-10-10T07:07:43.27Z</time>
      </trkpt>
      <trkpt lat="41.424240" lon="2.037640">
        <ele>106.60</ele>
        <time>2022-10-10T07:07:43.71Z</time>
      </trkpt>
      <trkpt lat="41.424310" lon="2.037470">
        <ele>103.70</ele>
        <time>2022-10-10T07:07:44.68Z</time>
      </trkpt>
      <trkpt lat="41.424370" lon="2.037420">
        <ele>102.00</ele>
        <time>2022-10-10T07:07:45.15Z</time>
      </trkpt>
      <trkpt lat="41.424390" lon="2.037390">
        <ele>101.40</ele>
        <time>2022-10-10T07:07:45.35Z</time>
      </trkpt>
      <trkpt lat="41.424390" lon="2.037290">
        <ele>100.70</ele>
        <time>2022-10-10T07:07:45.85Z</time>
      </trkpt>
      <trkpt lat="41.424450" lon="2.037180">
        <ele>99.00</ele>
        <time>2022-10-10T07:07:46.53Z</time>
      </trkpt>
      <trkpt lat="41.424510" lon="2.037130">
        <ele>98.90</ele>
        <time>2022-10-10T07:07:47.01Z</time>
      </trkpt>
      <trkpt lat="41.424600" lon="2.037030">
        <ele>98.60</ele>
        <time>2022-10-10T07:07:47.79Z</time>
      </trkpt>
      <trkpt lat="41.424630" lon="2.036920">
        <ele>98.20</ele>
        <time>2022-10-10T07:07:48.37Z</time>
      </trkpt>
      <trkpt lat="41.424630" lon="2.036800">
        <ele>97.60</ele>
        <time>2022-10-10T07:07:48.97Z</time>
      </trkpt>
      <trkpt lat="41.424610" lon="2.036650">
        <ele>97.10</ele>
        <time>2022-10-10T07:07:49.73Z</time>
      </trkpt>
      <trkpt lat="41.424630" lon="2.036320">
        <ele>95.10</ele>
        <time>2022-10-10T07:07:51.39Z</time>
      </trkpt>
      <trkpt lat="41.424640" lon="2.036050">
        <ele>94.30</ele>
        <time>2022-10-10T07:07:52.74Z</time>
      </trkpt>
      <trkpt lat="41.424660" lon="2.035880">
        <ele>94.40</ele>
        <time>2022-10-10T07:07:53.60Z</time>
      </trkpt>
      <trkpt lat="41.424700" lon="2.035610">
        <ele>94.30</ele>
        <time>2022-10-10T07:07:54.98Z</time>
      </trkpt>
      <trkpt lat="41.424710" lon="2.035560">
        <ele>94.20</ele>
        <time>2022-10-10T07:07:55.23Z</time>
      </trkpt>
      <trkpt lat="41.424650" lon="2.035530">
        <ele>95.90</ele>
        <time>2022-10-10T07:07:55.66Z</time>
      </trkpt>
      <trkpt lat="41.424530" lon="2.035560">
        <ele>98.20</ele>
        <time>2022-10-10T07:07:56.48Z</time>
      </trkpt>
      <trkpt lat="41.424500" lon="2.035530">
        <ele>98.90</ele>
        <time>2022-10-10T07:07:56.73Z</time>
      </trkpt>
      <trkpt lat="41.424500" lon="2.035530">
        <ele>98.90</ele>
        <time>2022-10-10T07:07:56.79Z</time>
      </trkpt>
      <trkpt lat="41.424500" lon="2.035540">
        <ele>98.90</ele>
        <time>2022-10-10T07:07:56.85Z</time>
      </trkpt>
      <trkpt lat="41.424450" lon="2.035490">
        <ele>100.10</ele>
        <time>2022-10-10T07:07:57.26Z</time>
      </trkpt>
      <trkpt lat="41.424330" lon="2.035410">
        <ele>102.40</ele>
        <time>2022-10-10T07:07:58.16Z</time>
      </trkpt>
      <trkpt lat="41.424240" lon="2.035400">
        <ele>103.80</ele>
        <time>2022-10-10T07:07:58.76Z</time>
      </trkpt>
      <trkpt lat="41.424170" lon="2.035430">
        <ele>104.90</ele>
        <time>2022-10-10T07:07:59.25Z</time>
      </trkpt>
      <trkpt lat="41.424090" lon="2.035410">
        <ele>106.20</ele>
        <time>2022-10-10T07:07:59.79Z</time>
      </trkpt>
      <trkpt lat="41.424030" lon="2.035340">
        <ele>106.50</ele>
        <time>2022-10-10T07:08:00.32Z</time>
      </trkpt>
      <trkpt lat="41.423990" lon="2.035300">
        <ele>106.50</ele>
        <time>2022-10-10T07:08:00.66Z</time>
      </trkpt>
      <trkpt lat="41.423950" lon="2.035250">
        <ele>106.60</ele>
        <time>2022-10-10T07:08:01.02Z</time>
      </trkpt>
      <trkpt lat="41.423900" lon="2.035190">
        <ele>106.90</ele>
        <time>2022-10-10T07:08:01.47Z</time>
      </trkpt>
      <trkpt lat="41.423880" lon="2.035160">
        <ele>107.20</ele>
        <time>2022-10-10T07:08:01.67Z</time>
      </trkpt>
      <trkpt lat="41.423820" lon="2.035140">
        <ele>108.90</ele>
        <time>2022-10-10T07:08:02.08Z</time>
      </trkpt>
      <trkpt lat="41.423740" lon="2.035070">
        <ele>110.60</ele>
        <time>2022-10-10T07:08:02.72Z</time>
      </trkpt>
      <trkpt lat="41.423640" lon="2.034950">
        <ele>111.70</ele>
        <time>2022-10-10T07:08:03.62Z</time>
      </trkpt>
      <trkpt lat="41.423580" lon="2.034920">
        <ele>113.20</ele>
        <time>2022-10-10T07:08:04.05Z</time>
      </trkpt>
      <trkpt lat="41.423470" lon="2.034840">
        <ele>116.10</ele>
        <time>2022-10-10T07:08:04.88Z</time>
      </trkpt>
      <trkpt lat="41.423370" lon="2.034780">
        <ele>118.40</ele>
        <time>2022-10-10T07:08:05.61Z</time>
      </trkpt>
      <trkpt lat="41.423310" lon="2.034720">
        <ele>118.50</ele>
        <time>2022-10-10T07:08:06.11Z</time>
      </trkpt>
      <trkpt lat="41.423200" lon="2.034570">
        <ele>117.00</ele>
        <time>2022-10-10T07:08:07.16Z</time>
      </trkpt>
      <trkpt lat="41.423110" lon="2.034410">
        <ele>113.50</ele>
        <time>2022-10-10T07:08:08.16Z</time>
      </trkpt>
      <trkpt lat="41.423030" lon="2.034270">
        <ele>109.80</ele>
        <time>2022-10-10T07:08:09.04Z</time>
      </trkpt>
      <trkpt lat="41.423100" lon="2.034010">
        <ele>105.70</ele>
        <time>2022-10-10T07:08:10.42Z</time>
      </trkpt>
      <trkpt lat="41.423100" lon="2.033880">
        <ele>104.50</ele>
        <time>2022-10-10T07:08:11.07Z</time>
      </trkpt>
      <trkpt lat="41.423050" lon="2.033810">
        <ele>103.60</ele>
        <time>2022-10-10T07:08:11.55Z</time>
      </trkpt>
      <trkpt lat="41.423030" lon="2.033620">
        <ele>100.20</ele>
        <time>2022-10-10T07:08:12.51Z</time>
      </trkpt>
      <trkpt lat="41.423040" lon="2.033450">
        <ele>95.30</ele>
        <time>2022-10-10T07:08:13.37Z</time>
      </trkpt>
      <trkpt lat="41.422950" lon="2.033400">
        <ele>93.60</ele>
        <time>2022-10-10T07:08:14.02Z</time>
      </trkpt>
      <trkpt lat="41.422830" lon="2.033400">
        <ele>93.30</ele>
        <time>2022-10-10T07:08:14.82Z</time>
      </trkpt>
      <trkpt lat="41.422700" lon="2.033530">
        <ele>98.80</ele>
        <time>2022-10-10T07:08:15.90Z</time>
      </trkpt>
      <trkpt lat="41.422550" lon="2.033590">
        <ele>102.80</ele>
        <time>2022-10-10T07:08:16.94Z</time>
      </trkpt>
      <trkpt lat="41.422390" lon="2.033610">
        <ele>106.00</ele>
        <time>2022-10-10T07:08:18.01Z</time>
      </trkpt>
      <trkpt lat="41.422290" lon="2.033500">
        <ele>106.10</ele>
        <time>2022-10-10T07:08:18.88Z</time>
      </trkpt>
      <trkpt lat="41.422190" lon="2.033290">
        <ele>104.00</ele>
        <time>2022-10-10T07:08:20.12Z</time>
      </trkpt>
      <trkpt lat="41.422050" lon="2.032950">
        <ele>97.60</ele>
        <time>2022-10-10T07:08:22.06Z</time>
      </trkpt>
      <trkpt lat="41.421860" lon="2.032760">
        <ele>94.70</ele>
        <time>2022-10-10T07:08:23.64Z</time>
      </trkpt>
      <trkpt lat="41.421700" lon="2.032640">
        <ele>92.90</ele>
        <time>2022-10-10T07:08:24.87Z</time>
      </trkpt>
      <trkpt lat="41.421540" lon="2.032490">
        <ele>92.20</ele>
        <time>2022-10-10T07:08:26.17Z</time>
      </trkpt>
      <trkpt lat="41.421440" lon="2.032430">
        <ele>92.10</ele>
        <time>2022-10-10T07:08:26.90Z</time>
      </trkpt>
      <trkpt lat="41.421340" lon="2.032480">
        <ele>94.30</ele>
        <time>2022-10-10T07:08:27.61Z</time>
      </trkpt>
      <trkpt lat="41.421210" lon="2.032400">
        <ele>94.80</ele>
        <time>2022-10-10T07:08:28.57Z</time>
      </trkpt>
      <trkpt lat="41.421170" lon="2.032360">
        <ele>94.60</ele>
        <time>2022-10-10T07:08:28.90Z</time>
      </trkpt>
      <trkpt lat="41.421170" lon="2.032270">
        <ele>93.00</ele>
        <time>2022-10-10T07:08:29.35Z</time>
      </trkpt>
      <trkpt lat="41.421210" lon="2.032210">
        <ele>91.30</ele>
        <time>2022-10-10T07:08:29.75Z</time>
      </trkpt>
      <trkpt lat="41.421220" lon="2.032150">
        <ele>89.70</ele>
        <time>2022-10-10T07:08:30.06Z</time>
      </trkpt>
      <trkpt lat="41.421170" lon="2.032090">
        <ele>88.90</ele>
        <time>2022-10-10T07:08:30.51Z</time>
      </trkpt>
      <trkpt lat="41.421150" lon="2.032010">
        <ele>87.20</ele>
        <time>2022-10-10T07:08:30.93Z</time>
      </trkpt>
      <trkpt lat="41.421150" lon="2.031870">
        <ele>84.60</ele>
        <time>2022-10-10T07:08:31.63Z</time>
      </trkpt>
      <trkpt lat="41.421170" lon="2.031710">
        <ele>82.20</ele>
        <time>2022-10-10T07:08:32.44Z</time>
      </trkpt>
      <trkpt lat="41.421190" lon="2.031590">
        <ele>81.30</ele>
        <time>2022-10-10T07:08:33.06Z</time>
      </trkpt>
      <trkpt lat="41.421220" lon="2.031480">
        <ele>81.10</ele>
        <time>2022-10-10T07:08:33.64Z</time>
      </trkpt>
      <trkpt lat="41.421260" lon="2.031380">
        <ele>81.00</ele>
        <time>2022-10-10T07:08:34.21Z</time>
      </trkpt>
      <trkpt lat="41.421260" lon="2.031280">
        <ele>81.20</ele>
        <time>2022-10-10T07:08:34.71Z</time>
      </trkpt>
      <trkpt lat="41.421210" lon="2.031100">
        <ele>81.40</ele>
        <time>2022-10-10T07:08:35.67Z</time>
      </trkpt>
      <trkpt lat="41.421100" lon="2.030820">
        <ele>82.10</ele>
        <time>2022-10-10T07:08:37.25Z</time>
      </trkpt>
      <trkpt lat="41.421070" lon="2.030740">
        <ele>82.10</ele>
        <time>2022-10-10T07:08:37.70Z</time>
      </trkpt>
      <trkpt lat="41.421050" lon="2.030710">
        <ele>82.10</ele>
        <time>2022-10-10T07:08:37.90Z</time>
      </trkpt>
      <trkpt lat="41.421010" lon="2.030690">
        <ele>82.40</ele>
        <time>2022-10-10T07:08:38.18Z</time>
      </trkpt>
      <trkpt lat="41.420920" lon="2.030710">
        <ele>83.40</ele>
        <time>2022-10-10T07:08:38.79Z</time>
      </trkpt>
      <trkpt lat="41.420840" lon="2.030720">
        <ele>84.30</ele>
        <time>2022-10-10T07:08:39.32Z</time>
      </trkpt>
      <trkpt lat="41.420770" lon="2.030680">
        <ele>84.60</ele>
        <time>2022-10-10T07:08:39.83Z</time>
      </trkpt>
      <trkpt lat="41.420660" lon="2.030550">
        <ele>83.20</ele>
        <time>2022-10-10T07:08:40.81Z</time>
      </trkpt>
      <trkpt lat="41.420480" lon="2.030340">
        <ele>83.10</ele>
        <time>2022-10-10T07:08:42.41Z</time>
      </trkpt>
      <trkpt lat="41.420420" lon="2.030200">
        <ele>83.50</ele>
        <time>2022-10-10T07:08:43.21Z</time>
      </trkpt>
      <trkpt lat="41.420380" lon="2.030050">
        <ele>83.90</ele>
        <time>2022-10-10T07:08:44.01Z</time>
      </trkpt>
      <trkpt lat="41.420360" lon="2.029870">
        <ele>84.30</ele>
        <time>2022-10-10T07:08:44.92Z</time>
      </trkpt>
      <trkpt lat="41.420410" lon="2.029690">
        <ele>82.80</ele>
        <time>2022-10-10T07:08:45.88Z</time>
      </trkpt>
      <trkpt lat="41.420400" lon="2.029350">
        <ele>83.10</ele>
        <time>2022-10-10T07:08:47.58Z</time>
      </trkpt>
      <trkpt lat="41.420360" lon="2.028990">
        <ele>82.20</ele>
        <time>2022-10-10T07:08:49.40Z</time>
      </trkpt>
      <trkpt lat="41.420360" lon="2.028870">
        <ele>81.20</ele>
        <time>2022-10-10T07:08:50Z</time>
      </trkpt>
      <trkpt lat="41.420460" lon="2.028320">
        <ele>74.70</ele>
        <time>2022-10-10T07:08:52.83Z</time>
      </trkpt>
      <trkpt lat="41.420480" lon="2.028050">
        <ele>73.60</ele>
        <time>2022-10-10T07:08:54.18Z</time>
      </trkpt>
      <trkpt lat="41.420480" lon="2.027870">
        <ele>73.70</ele>
        <time>2022-10-10T07:08:55.08Z</time>
      </trkpt>
      <trkpt lat="41.420320" lon="2.027410">
        <ele>71.40</ele>
        <time>2022-10-10T07:08:57.62Z</time>
      </trkpt>
      <trkpt lat="41.420280" lon="2.027340">
        <ele>70.70</ele>
        <time>2022-10-10T07:08:58.06Z</time>
      </trkpt>
      <trkpt lat="41.420230" lon="2.027290">
        <ele>70.90</ele>
        <time>2022-10-10T07:08:58.48Z</time>
      </trkpt>
      <trkpt lat="41.420200" lon="2.027180">
        <ele>69.90</ele>
        <time>2022-10-10T07:08:59.06Z</time>
      </trkpt>
      <trkpt lat="41.420180" lon="2.027060">
        <ele>68.80</ele>
        <time>2022-10-10T07:08:59.67Z</time>
      </trkpt>
      <trkpt lat="41.420170" lon="2.026950">
        <ele>67.50</ele>
        <time>2022-10-10T07:09:00.23Z</time>
      </trkpt>
      <trkpt lat="41.420140" lon="2.026900">
        <ele>67.00</ele>
        <time>2022-10-10T07:09:00.55Z</time>
      </trkpt>
      <trkpt lat="41.419920" lon="2.026690">
        <ele>66.90</ele>
        <time>2022-10-10T07:09:02.35Z</time>
      </trkpt>
      <trkpt lat="41.419790" lon="2.026500">
        <ele>64.20</ele>
        <time>2022-10-10T07:09:03.64Z</time>
      </trkpt>
      <trkpt lat="41.419690" lon="2.026350">
        <ele>61.40</ele>
        <time>2022-10-10T07:09:04.64Z</time>
      </trkpt>
      <trkpt lat="41.419640" lon="2.026240">
        <ele>59.90</ele>
        <time>2022-10-10T07:09:05.28Z</time>
      </trkpt>
      <trkpt lat="41.419640" lon="2.026240">
        <ele>59.90</ele>
        <time>2022-10-10T07:09:05.34Z</time>
      </trkpt>
      <trkpt lat="41.419640" lon="2.026240">
        <ele>59.90</ele>
        <time>2022-10-10T07:09:05.40Z</time>
      </trkpt>
      <trkpt lat="41.419640" lon="2.026240">
        <ele>59.90</ele>
        <time>2022-10-10T07:09:05.46Z</time>
      </trkpt>
      <trkpt lat="41.419540" lon="2.026050">
        <ele>56.40</ele>
        <time>2022-10-10T07:09:06.63Z</time>
      </trkpt>
      <trkpt lat="41.419430" lon="2.025970">
        <ele>54.10</ele>
        <time>2022-10-10T07:09:07.46Z</time>
      </trkpt>
      <trkpt lat="41.419410" lon="2.025960">
        <ele>54.10</ele>
        <time>2022-10-10T07:09:07.60Z</time>
      </trkpt>
      <trkpt lat="41.419280" lon="2.025910">
        <ele>54.30</ele>
        <time>2022-10-10T07:09:08.50Z</time>
      </trkpt>
      <trkpt lat="41.419260" lon="2.025930">
        <ele>54.60</ele>
        <time>2022-10-10T07:09:08.67Z</time>
      </trkpt>
      <trkpt lat="41.419190" lon="2.025970">
        <ele>55.30</ele>
        <time>2022-10-10T07:09:09.18Z</time>
      </trkpt>
      <trkpt lat="41.419130" lon="2.026050">
        <ele>55.80</ele>
        <time>2022-10-10T07:09:09.74Z</time>
      </trkpt>
      <trkpt lat="41.419060" lon="2.026120">
        <ele>55.60</ele>
        <time>2022-10-10T07:09:10.33Z</time>
      </trkpt>
      <trkpt lat="41.418920" lon="2.026190">
        <ele>54.50</ele>
        <time>2022-10-10T07:09:11.32Z</time>
      </trkpt>
      <trkpt lat="41.418810" lon="2.026250">
        <ele>55.60</ele>
        <time>2022-10-10T07:09:12.12Z</time>
      </trkpt>
      <trkpt lat="41.418750" lon="2.026280">
        <ele>56.10</ele>
        <time>2022-10-10T07:09:12.54Z</time>
      </trkpt>
      <trkpt lat="41.418760" lon="2.026230">
        <ele>55.80</ele>
        <time>2022-10-10T07:09:12.80Z</time>
      </trkpt>
      <trkpt lat="41.418760" lon="2.026150">
        <ele>55.50</ele>
        <time>2022-10-10T07:09:13.20Z</time>
      </trkpt>
      <trkpt lat="41.418770" lon="2.026070">
        <ele>55.00</ele>
        <time>2022-10-10T07:09:13.61Z</time>
      </trkpt>
      <trkpt lat="41.418860" lon="2.025850">
        <ele>51.10</ele>
        <time>2022-10-10T07:09:14.86Z</time>
      </trkpt>
      <trkpt lat="41.418900" lon="2.025750">
        <ele>50.10</ele>
        <time>2022-10-10T07:09:15.43Z</time>
      </trkpt>
      <trkpt lat="41.418930" lon="2.025660">
        <ele>50.40</ele>
        <time>2022-10-10T07:09:15.92Z</time>
      </trkpt>
      <trkpt lat="41.418940" lon="2.025590">
        <ele>50.40</ele>
        <time>2022-10-10T07:09:16.28Z</time>
      </trkpt>
      <trkpt lat="41.418930" lon="2.025530">
        <ele>50.60</ele>
        <time>2022-10-10T07:09:16.58Z</time>
      </trkpt>
      <trkpt lat="41.418920" lon="2.025490">
        <ele>51.00</ele>
        <time>2022-10-10T07:09:16.79Z</time>
      </trkpt>
      <trkpt lat="41.418900" lon="2.025450">
        <ele>51.20</ele>
        <time>2022-10-10T07:09:17.04Z</time>
      </trkpt>
      <trkpt lat="41.418870" lon="2.025390">
        <ele>52.20</ele>
        <time>2022-10-10T07:09:17.40Z</time>
      </trkpt>
      <trkpt lat="41.418840" lon="2.025350">
        <ele>53.30</ele>
        <time>2022-10-10T07:09:17.68Z</time>
      </trkpt>
      <trkpt lat="41.418840" lon="2.025350">
        <ele>53.30</ele>
        <time>2022-10-10T07:09:17.74Z</time>
      </trkpt>
      <trkpt lat="41.418732" lon="2.025423">
        <ele>72.20</ele>
        <time>2022-10-10T07:09:18.55Z</time>
      </trkpt>
      <trkpt lat="41.418642" lon="2.025394">
        <ele>71.80</ele>
        <time>2022-10-10T07:09:19.16Z</time>
      </trkpt>
      <trkpt lat="41.418469" lon="2.025338">
        <ele>71.10</ele>
        <time>2022-10-10T07:09:20.35Z</time>
      </trkpt>
      <trkpt lat="41.418407" lon="2.025566">
        <ele>70.90</ele>
        <time>2022-10-10T07:09:21.56Z</time>
      </trkpt>
      <trkpt lat="41.418147" lon="2.024986">
        <ele>70.24</ele>
        <time>2022-10-10T07:09:21.76Z</time>
      </trkpt>
      <trkpt lat="41.417795" lon="2.024580">
        <ele>69.54</ele>
        <time>2022-10-10T07:09:21.97Z</time>
      </trkpt>
    </trkseg>
  </trk>
</gpx>
